<?xml version='1.0' encoding='UTF-8'?><gpx version="1.1" creator="JPX - https://github.com/jenetics/jpx" xmlns="http://www.topografix.com/GPX/1/1"><trk><trkseg><trkpt lat="45.48171578390426" lon="11.225559600004972"><ele>461.0</ele><time>2026-05-01T17:49:01Z</time></trkpt><trkpt lat="45.4816349660856" lon="11.225637241780255"><ele>461.0</ele><time>2026-05-01T17:49:03Z</time></trkpt><trkpt lat="45.48156598157059" lon="11.225746404182766"><ele>461.0</ele><time>2026-05-01T17:49:05Z</time></trkpt><trkpt lat="45.48154048892974" lon="11.225871806639917"><ele>461.0</ele><time>2026-05-01T17:49:08Z</time></trkpt><trkpt lat="45.481490169195666" lon="11.225963748238922"><ele>461.0</ele><time>2026-05-01T17:49:10Z</time></trkpt><trkpt lat="45.481413272389695" lon="11.2260040093728"><ele>459.99999999999994</ele><time>2026-05-01T17:49:12Z</time></trkpt><trkpt lat="45.48131645923383" lon="11.22610142077257"><ele>459.0</ele><time>2026-05-01T17:49:14Z</time></trkpt><trkpt lat="45.48125778848489" lon="11.226157633765947"><ele>458.0</ele><time>2026-05-01T17:49:15Z</time></trkpt><trkpt lat="45.48120015066747" lon="11.226199770734446"><ele>457.0</ele><time>2026-05-01T17:49:16Z</time></trkpt><trkpt lat="45.4811451345974" lon="11.22624985650463"><ele>455.99999999999994</ele><time>2026-05-01T17:49:17Z</time></trkpt><trkpt lat="45.48108444419508" lon="11.226295420647473"><ele>455.0</ele><time>2026-05-01T17:49:18Z</time></trkpt><trkpt lat="45.48099989617852" lon="11.22637998666503"><ele>459.0</ele><time>2026-05-01T17:49:20Z</time></trkpt><trkpt lat="45.48095133052069" lon="11.22651011546024"><ele>463.0</ele><time>2026-05-01T17:49:22Z</time></trkpt><trkpt lat="45.48093660366504" lon="11.22660031783583"><ele>467.0</ele><time>2026-05-01T17:49:23Z</time></trkpt><trkpt lat="45.48090696506741" lon="11.226749925698277"><ele>471.0</ele><time>2026-05-01T17:49:25Z</time></trkpt><trkpt lat="45.48086589388056" lon="11.226842157634048"><ele>475.0</ele><time>2026-05-01T17:49:27Z</time></trkpt><trkpt lat="45.480834940198186" lon="11.226978593713188"><ele>475.0</ele><time>2026-05-01T17:49:29Z</time></trkpt><trkpt lat="45.48080372374117" lon="11.227117802544084"><ele>475.0</ele><time>2026-05-01T17:49:31Z</time></trkpt><trkpt lat="45.480734575653614" lon="11.227269560086377"><ele>475.0</ele><time>2026-05-01T17:49:33Z</time></trkpt><trkpt lat="45.48068926759" lon="11.227341554512385"><ele>475.0</ele><time>2026-05-01T17:49:34Z</time></trkpt><trkpt lat="45.48060250029132" lon="11.227418801466008"><ele>475.0</ele><time>2026-05-01T17:49:36Z</time></trkpt><trkpt lat="45.48049529477292" lon="11.227554161115819"><ele>474.1666666666667</ele><time>2026-05-01T17:49:38Z</time></trkpt><trkpt lat="45.4804292646361" lon="11.227724402284466"><ele>473.33333333333337</ele><time>2026-05-01T17:49:40Z</time></trkpt><trkpt lat="45.48038096353395" lon="11.22779389559759"><ele>472.5</ele><time>2026-05-01T17:49:41Z</time></trkpt><trkpt lat="45.480308004075155" lon="11.227838228104396"><ele>471.66666666666663</ele><time>2026-05-01T17:49:42Z</time></trkpt><trkpt lat="45.48024483661087" lon="11.227873147305552"><ele>470.8333333333333</ele><time>2026-05-01T17:49:43Z</time></trkpt><trkpt lat="45.48018186527929" lon="11.227902186516555"><ele>470.0</ele><time>2026-05-01T17:49:44Z</time></trkpt><trkpt lat="45.480074016338" lon="11.227908368577715"><ele>470.0</ele><time>2026-05-01T17:49:46Z</time></trkpt><trkpt lat="45.47996712251304" lon="11.227866810864768"><ele>470.0</ele><time>2026-05-01T17:49:48Z</time></trkpt><trkpt lat="45.47990211440945" lon="11.22782259658043"><ele>470.0</ele><time>2026-05-01T17:49:49Z</time></trkpt><trkpt lat="45.479806992843116" lon="11.22781798071836"><ele>470.0</ele><time>2026-05-01T17:49:51Z</time></trkpt><trkpt lat="45.47973144543011" lon="11.227890732089339"><ele>470.0</ele><time>2026-05-01T17:49:53Z</time></trkpt><trkpt lat="45.47964984354329" lon="11.228015378916641"><ele>467.3333333333333</ele><time>2026-05-01T17:49:55Z</time></trkpt><trkpt lat="45.4795860589659" lon="11.228072209978244"><ele>464.66666666666663</ele><time>2026-05-01T17:49:56Z</time></trkpt><trkpt lat="45.47952414608394" lon="11.228118681698383"><ele>462.0</ele><time>2026-05-01T17:49:57Z</time></trkpt><trkpt lat="45.47940845006684" lon="11.228183873820074"><ele>459.33333333333337</ele><time>2026-05-01T17:49:59Z</time></trkpt><trkpt lat="45.47933990630849" lon="11.228215842580022"><ele>456.6666666666667</ele><time>2026-05-01T17:50:00Z</time></trkpt><trkpt lat="45.47923901591829" lon="11.228244825323577"><ele>454.0</ele><time>2026-05-01T17:50:02Z</time></trkpt><trkpt lat="45.47912902013053" lon="11.228221328426443"><ele>454.0</ele><time>2026-05-01T17:50:04Z</time></trkpt><trkpt lat="45.47901890197792" lon="11.22825209201367"><ele>454.0</ele><time>2026-05-01T17:50:06Z</time></trkpt><trkpt lat="45.47895167299814" lon="11.228336929345302"><ele>454.0</ele><time>2026-05-01T17:50:08Z</time></trkpt><trkpt lat="45.47889765440158" lon="11.228410031637267"><ele>454.0</ele><time>2026-05-01T17:50:09Z</time></trkpt><trkpt lat="45.47878673033098" lon="11.228434833034777"><ele>454.0</ele><time>2026-05-01T17:50:11Z</time></trkpt><trkpt lat="45.478723332372105" lon="11.228426746760434"><ele>450.83333333333337</ele><time>2026-05-01T17:50:12Z</time></trkpt><trkpt lat="45.47867082332904" lon="11.228500133184117"><ele>447.6666666666667</ele><time>2026-05-01T17:50:16Z</time></trkpt><trkpt lat="45.4785844393239" lon="11.228553711290415"><ele>444.5</ele><time>2026-05-01T17:50:18Z</time></trkpt><trkpt lat="45.47850642392923" lon="11.228612407752223"><ele>441.33333333333337</ele><time>2026-05-01T17:50:20Z</time></trkpt><trkpt lat="45.478406947351765" lon="11.228654998539373"><ele>438.1666666666667</ele><time>2026-05-01T17:50:22Z</time></trkpt><trkpt lat="45.47833311611915" lon="11.228683235113438"><ele>435.0</ele><time>2026-05-01T17:50:23Z</time></trkpt><trkpt lat="45.47825337194151" lon="11.228708267985088"><ele>435.0</ele><time>2026-05-01T17:50:24Z</time></trkpt><trkpt lat="45.47819061009749" lon="11.228720836943605"><ele>435.0</ele><time>2026-05-01T17:50:25Z</time></trkpt><trkpt lat="45.47806867122659" lon="11.228716922691943"><ele>435.0</ele><time>2026-05-01T17:50:27Z</time></trkpt><trkpt lat="45.47797550632332" lon="11.228769144804295"><ele>435.0</ele><time>2026-05-01T17:50:29Z</time></trkpt><trkpt lat="45.4779356630089" lon="11.22892192339787"><ele>435.0</ele><time>2026-05-01T17:50:31Z</time></trkpt><trkpt lat="45.477965815697566" lon="11.229069537820102"><ele>435.8333333333333</ele><time>2026-05-01T17:50:33Z</time></trkpt><trkpt lat="45.47801148902263" lon="11.229166916598345"><ele>436.66666666666663</ele><time>2026-05-01T17:50:34Z</time></trkpt><trkpt lat="45.478071766110446" lon="11.229258272398482"><ele>437.5</ele><time>2026-05-01T17:50:35Z</time></trkpt><trkpt lat="45.478140324453506" lon="11.229356743060773"><ele>438.3333333333333</ele><time>2026-05-01T17:50:36Z</time></trkpt><trkpt lat="45.47820606099945" lon="11.229449253907461"><ele>439.16666666666663</ele><time>2026-05-01T17:50:37Z</time></trkpt><trkpt lat="45.478260669253494" lon="11.229524733280213"><ele>440.0</ele><time>2026-05-01T17:50:38Z</time></trkpt><trkpt lat="45.47835378846419" lon="11.229613964087829"><ele>439.99999999999994</ele><time>2026-05-01T17:50:40Z</time></trkpt><trkpt lat="45.478401195545125" lon="11.229735681717361"><ele>440.0</ele><time>2026-05-01T17:50:42Z</time></trkpt><trkpt lat="45.47840149177483" lon="11.229905763764467"><ele>440.0</ele><time>2026-05-01T17:50:44Z</time></trkpt><trkpt lat="45.478393794443896" lon="11.230003503689773"><ele>440.0</ele><time>2026-05-01T17:50:45Z</time></trkpt><trkpt lat="45.47839445528916" lon="11.230114832642649"><ele>439.99999999999994</ele><time>2026-05-01T17:50:46Z</time></trkpt><trkpt lat="45.47839675941785" lon="11.230229257942046"><ele>440.0</ele><time>2026-05-01T17:50:47Z</time></trkpt><trkpt lat="45.47839781971746" lon="11.23032696501297"><ele>438.49999999999994</ele><time>2026-05-01T17:50:48Z</time></trkpt><trkpt lat="45.47840176154149" lon="11.23042093608889"><ele>437.0</ele><time>2026-05-01T17:50:49Z</time></trkpt><trkpt lat="45.47839988194627" lon="11.230516040347645"><ele>435.5</ele><time>2026-05-01T17:50:50Z</time></trkpt><trkpt lat="45.47839860609485" lon="11.230694315403152"><ele>434.0</ele><time>2026-05-01T17:50:52Z</time></trkpt><trkpt lat="45.47839687783083" lon="11.230843772729262"><ele>432.49999999999994</ele><time>2026-05-01T17:50:54Z</time></trkpt><trkpt lat="45.4784248982194" lon="11.230934320305378"><ele>431.0</ele><time>2026-05-01T17:50:56Z</time></trkpt><trkpt lat="45.47851221516859" lon="11.230976322974621"><ele>430.20000000000005</ele><time>2026-05-01T17:50:58Z</time></trkpt><trkpt lat="45.478591007101414" lon="11.231003268275838"><ele>429.40000000000003</ele><time>2026-05-01T17:50:59Z</time></trkpt><trkpt lat="45.47868933587484" lon="11.231030665295375"><ele>428.6</ele><time>2026-05-01T17:51:00Z</time></trkpt><trkpt lat="45.47879704170194" lon="11.231125140470281"><ele>427.8</ele><time>2026-05-01T17:51:01Z</time></trkpt><trkpt lat="45.47892110750136" lon="11.23117795445208"><ele>427.0</ele><time>2026-05-01T17:51:02Z</time></trkpt><trkpt lat="45.47904850032379" lon="11.231231598780312"><ele>427.0</ele><time>2026-05-01T17:51:03Z</time></trkpt><trkpt lat="45.479184065327225" lon="11.231288684446577"><ele>427.0</ele><time>2026-05-01T17:51:04Z</time></trkpt><trkpt lat="45.47931535589193" lon="11.231343636981471"><ele>427.0</ele><time>2026-05-01T17:51:05Z</time></trkpt><trkpt lat="45.47943489341309" lon="11.231390680301788"><ele>427.0</ele><time>2026-05-01T17:51:06Z</time></trkpt><trkpt lat="45.479553735918785" lon="11.23141589068466"><ele>426.40000000000003</ele><time>2026-05-01T17:51:07Z</time></trkpt><trkpt lat="45.47965824250816" lon="11.231472839298098"><ele>425.80000000000007</ele><time>2026-05-01T17:51:08Z</time></trkpt><trkpt lat="45.47975653258169" lon="11.231508589698041"><ele>425.2</ele><time>2026-05-01T17:51:09Z</time></trkpt><trkpt lat="45.479842059795615" lon="11.231539687991667"><ele>424.6</ele><time>2026-05-01T17:51:10Z</time></trkpt><trkpt lat="45.479928284116426" lon="11.231585091071523"><ele>424.0</ele><time>2026-05-01T17:51:11Z</time></trkpt><trkpt lat="45.480013402748504" lon="11.231643668577473"><ele>424.00000000000006</ele><time>2026-05-01T17:51:12Z</time></trkpt><trkpt lat="45.48008818972672" lon="11.231680468029285"><ele>424.0</ele><time>2026-05-01T17:51:13Z</time></trkpt><trkpt lat="45.48016005956378" lon="11.231698723954196"><ele>424.0</ele><time>2026-05-01T17:51:14Z</time></trkpt><trkpt lat="45.480224209359726" lon="11.231717417593764"><ele>424.0</ele><time>2026-05-01T17:51:15Z</time></trkpt><trkpt lat="45.4803261481569" lon="11.23169499241461"><ele>424.00000000000006</ele><time>2026-05-01T17:51:17Z</time></trkpt><trkpt lat="45.48038621247457" lon="11.231584929453234"><ele>424.0</ele><time>2026-05-01T17:51:19Z</time></trkpt><trkpt lat="45.480391439912054" lon="11.231386532095067"><ele>425.33333333333337</ele><time>2026-05-01T17:51:21Z</time></trkpt><trkpt lat="45.48040766445842" lon="11.231271650372305"><ele>426.6666666666667</ele><time>2026-05-01T17:51:22Z</time></trkpt><trkpt lat="45.4804076607173" lon="11.231146479487823"><ele>428.0</ele><time>2026-05-01T17:51:23Z</time></trkpt><trkpt lat="45.48040732401486" lon="11.23102983133947"><ele>429.33333333333337</ele><time>2026-05-01T17:51:24Z</time></trkpt><trkpt lat="45.48040695811626" lon="11.230903068296087"><ele>430.6666666666667</ele><time>2026-05-01T17:51:25Z</time></trkpt><trkpt lat="45.48041142309618" lon="11.230783313047361"><ele>432.0</ele><time>2026-05-01T17:51:26Z</time></trkpt><trkpt lat="45.48042343192386" lon="11.2306745066406"><ele>431.40000000000003</ele><time>2026-05-01T17:51:27Z</time></trkpt><trkpt lat="45.48045756295434" lon="11.230491785241021"><ele>430.80000000000007</ele><time>2026-05-01T17:51:29Z</time></trkpt><trkpt lat="45.48049094613897" lon="11.230357603389166"><ele>430.2</ele><time>2026-05-01T17:51:30Z</time></trkpt><trkpt lat="45.48053912246064" lon="11.230231798619936"><ele>429.6</ele><time>2026-05-01T17:51:31Z</time></trkpt><trkpt lat="45.480598704696135" lon="11.230090092953526"><ele>429.0</ele><time>2026-05-01T17:51:32Z</time></trkpt><trkpt lat="45.48066450474747" lon="11.229957069608307"><ele>429.0</ele><time>2026-05-01T17:51:33Z</time></trkpt><trkpt lat="45.48073805136506" lon="11.229815379450988"><ele>429.0</ele><time>2026-05-01T17:51:34Z</time></trkpt><trkpt lat="45.48081627868907" lon="11.229675318148965"><ele>429.0</ele><time>2026-05-01T17:51:35Z</time></trkpt><trkpt lat="45.480887958359126" lon="11.229542499452162"><ele>429.0</ele><time>2026-05-01T17:51:36Z</time></trkpt><trkpt lat="45.48095279888334" lon="11.229422130196026"><ele>427.0</ele><time>2026-05-01T17:51:37Z</time></trkpt><trkpt lat="45.48102041836777" lon="11.229301963408117"><ele>425.0</ele><time>2026-05-01T17:51:38Z</time></trkpt><trkpt lat="45.48110266724932" lon="11.229191456440475"><ele>423.0</ele><time>2026-05-01T17:51:39Z</time></trkpt><trkpt lat="45.48117295885465" lon="11.229102084374082"><ele>421.0</ele><time>2026-05-01T17:51:40Z</time></trkpt><trkpt lat="45.481236472756144" lon="11.229010590110155"><ele>419.0</ele><time>2026-05-01T17:51:41Z</time></trkpt><trkpt lat="45.481318044784786" lon="11.2289127682736"><ele>418.99999999999994</ele><time>2026-05-01T17:51:42Z</time></trkpt><trkpt lat="45.481391297660295" lon="11.228842483295685"><ele>419.0</ele><time>2026-05-01T17:51:43Z</time></trkpt><trkpt lat="45.48144370477863" lon="11.228744573477003"><ele>419.0</ele><time>2026-05-01T17:51:44Z</time></trkpt><trkpt lat="45.48148805869121" lon="11.228611741454772"><ele>419.0</ele><time>2026-05-01T17:51:45Z</time></trkpt><trkpt lat="45.481522714964676" lon="11.22848974797757"><ele>418.99999999999994</ele><time>2026-05-01T17:51:46Z</time></trkpt><trkpt lat="45.48155384530546" lon="11.22839762546234"><ele>419.0</ele><time>2026-05-01T17:51:47Z</time></trkpt><trkpt lat="45.48156387601291" lon="11.22830659302907"><ele>418.99999999999994</ele><time>2026-05-01T17:51:48Z</time></trkpt><trkpt lat="45.481582686093105" lon="11.228196656997136"><ele>419.0</ele><time>2026-05-01T17:51:50Z</time></trkpt><trkpt lat="45.4816147775572" lon="11.228115566500401"><ele>419.0</ele><time>2026-05-01T17:51:55Z</time></trkpt><trkpt lat="45.481648198140476" lon="11.227999320371916"><ele>419.0</ele><time>2026-05-01T17:52:24Z</time></trkpt><trkpt lat="45.481677685868206" lon="11.227910505440647"><ele>418.99999999999994</ele><time>2026-05-01T17:53:05Z</time></trkpt><trkpt lat="45.48173594326387" lon="11.227791584639636"><ele>419.0</ele><time>2026-05-01T17:53:07Z</time></trkpt><trkpt lat="45.48179324609113" lon="11.22772600080128"><ele>416.79999999999995</ele><time>2026-05-01T17:53:08Z</time></trkpt><trkpt lat="45.481868071310615" lon="11.227666031452893"><ele>414.59999999999997</ele><time>2026-05-01T17:53:09Z</time></trkpt><trkpt lat="45.48194707579025" lon="11.22758374188418"><ele>412.4</ele><time>2026-05-01T17:53:10Z</time></trkpt><trkpt lat="45.48203266192024" lon="11.227501948510763"><ele>410.2</ele><time>2026-05-01T17:53:11Z</time></trkpt><trkpt lat="45.482107961868515" lon="11.227404019627933"><ele>408.0</ele><time>2026-05-01T17:53:12Z</time></trkpt><trkpt lat="45.48218038093164" lon="11.227291362185394"><ele>412.59999999999997</ele><time>2026-05-01T17:53:13Z</time></trkpt><trkpt lat="45.48226254486871" lon="11.227204051367995"><ele>417.2</ele><time>2026-05-01T17:53:14Z</time></trkpt><trkpt lat="45.482339796984064" lon="11.227097852012635"><ele>421.8</ele><time>2026-05-01T17:53:15Z</time></trkpt><trkpt lat="45.48241684879247" lon="11.22698804746413"><ele>426.4</ele><time>2026-05-01T17:53:16Z</time></trkpt><trkpt lat="45.482497130475025" lon="11.226870970676643"><ele>431.0</ele><time>2026-05-01T17:53:17Z</time></trkpt><trkpt lat="45.482588089656254" lon="11.226739662026455"><ele>431.0</ele><time>2026-05-01T17:53:18Z</time></trkpt><trkpt lat="45.48267120570102" lon="11.226621735815277"><ele>431.0</ele><time>2026-05-01T17:53:19Z</time></trkpt><trkpt lat="45.48275566943163" lon="11.22650266204608"><ele>431.0</ele><time>2026-05-01T17:53:20Z</time></trkpt><trkpt lat="45.48284734962598" lon="11.226373414482117"><ele>431.0</ele><time>2026-05-01T17:53:21Z</time></trkpt><trkpt lat="45.48293435603634" lon="11.22627117727414"><ele>427.0</ele><time>2026-05-01T17:53:22Z</time></trkpt><trkpt lat="45.483014589770804" lon="11.22619127529332"><ele>423.0</ele><time>2026-05-01T17:53:23Z</time></trkpt><trkpt lat="45.48306688231232" lon="11.226075138821491"><ele>419.0</ele><time>2026-05-01T17:53:24Z</time></trkpt><trkpt lat="45.48313324932667" lon="11.225990825867603"><ele>415.0</ele><time>2026-05-01T17:53:25Z</time></trkpt><trkpt lat="45.48317559792416" lon="11.225863248605737"><ele>411.0</ele><time>2026-05-01T17:53:26Z</time></trkpt><trkpt lat="45.483231455392186" lon="11.2257372529939"><ele>413.0</ele><time>2026-05-01T17:53:27Z</time></trkpt><trkpt lat="45.483266476257924" lon="11.225582758978069"><ele>415.0</ele><time>2026-05-01T17:53:28Z</time></trkpt><trkpt lat="45.483300645828166" lon="11.225407009518829"><ele>417.0</ele><time>2026-05-01T17:53:29Z</time></trkpt><trkpt lat="45.48332681977077" lon="11.225230954183553"><ele>419.0</ele><time>2026-05-01T17:53:30Z</time></trkpt><trkpt lat="45.483351647013905" lon="11.22505315616021"><ele>419.0</ele><time>2026-05-01T17:53:31Z</time></trkpt><trkpt lat="45.483377192872254" lon="11.22489261292733"><ele>419.0</ele><time>2026-05-01T17:53:32Z</time></trkpt><trkpt lat="45.48341210525605" lon="11.224754315488726"><ele>419.0</ele><time>2026-05-01T17:53:33Z</time></trkpt><trkpt lat="45.48345182236294" lon="11.224633265433976"><ele>419.0</ele><time>2026-05-01T17:53:34Z</time></trkpt><trkpt lat="45.48351819463508" lon="11.2245325066776"><ele>419.0</ele><time>2026-05-01T17:53:35Z</time></trkpt><trkpt lat="45.48359706707298" lon="11.224425768699275"><ele>418.99999999999994</ele><time>2026-05-01T17:53:36Z</time></trkpt><trkpt lat="45.48367078603887" lon="11.224321049831138"><ele>419.0</ele><time>2026-05-01T17:53:37Z</time></trkpt><trkpt lat="45.48374421781537" lon="11.2242224813797"><ele>419.0</ele><time>2026-05-01T17:53:38Z</time></trkpt><trkpt lat="45.483813786124756" lon="11.224150784927135"><ele>419.0</ele><time>2026-05-01T17:53:39Z</time></trkpt><trkpt lat="45.48387857481601" lon="11.224086928473325"><ele>418.99999999999994</ele><time>2026-05-01T17:53:40Z</time></trkpt><trkpt lat="45.483936368315874" lon="11.224012567549691"><ele>419.0</ele><time>2026-05-01T17:53:41Z</time></trkpt><trkpt lat="45.48397771904491" lon="11.223929534412035"><ele>416.85714285714283</ele><time>2026-05-01T17:53:42Z</time></trkpt><trkpt lat="45.48400884879376" lon="11.22383973364106"><ele>414.7142857142857</ele><time>2026-05-01T17:53:43Z</time></trkpt><trkpt lat="45.484027290454954" lon="11.223752903596258"><ele>412.57142857142856</ele><time>2026-05-01T17:53:44Z</time></trkpt><trkpt lat="45.48405872830366" lon="11.223663385641792"><ele>410.42857142857144</ele><time>2026-05-01T17:53:45Z</time></trkpt><trkpt lat="45.48411011331307" lon="11.22359330452864"><ele>408.2857142857143</ele><time>2026-05-01T17:53:46Z</time></trkpt><trkpt lat="45.48417372228606" lon="11.223547374673004"><ele>406.1428571428571</ele><time>2026-05-01T17:53:47Z</time></trkpt><trkpt lat="45.4842390074697" lon="11.223504226758095"><ele>404.0</ele><time>2026-05-01T17:53:48Z</time></trkpt><trkpt lat="45.48432777203204" lon="11.223452277608764"><ele>403.99999999999994</ele><time>2026-05-01T17:53:49Z</time></trkpt><trkpt lat="45.4843875790531" lon="11.223404736052819"><ele>404.0</ele><time>2026-05-01T17:53:50Z</time></trkpt><trkpt lat="45.48445551947357" lon="11.223387492887948"><ele>404.0</ele><time>2026-05-01T17:53:51Z</time></trkpt><trkpt lat="45.48457282546201" lon="11.223427907916475"><ele>404.0</ele><time>2026-05-01T17:53:53Z</time></trkpt><trkpt lat="45.48464676476807" lon="11.223516055173832"><ele>403.99999999999994</ele><time>2026-05-01T17:53:55Z</time></trkpt><trkpt lat="45.4847040348032" lon="11.22359024115015"><ele>404.0</ele><time>2026-05-01T17:53:58Z</time></trkpt><trkpt lat="45.48483363881604" lon="11.223456659392504"><ele>403.6</ele><time>2026-05-01T17:53:59Z</time></trkpt><trkpt lat="45.48489259681359" lon="11.22338413302177"><ele>403.2</ele><time>2026-05-01T17:54:00Z</time></trkpt><trkpt lat="45.48495488075889" lon="11.223310919948972"><ele>402.8</ele><time>2026-05-01T17:54:01Z</time></trkpt><trkpt lat="45.485022973769816" lon="11.2232153603856"><ele>402.40000000000003</ele><time>2026-05-01T17:54:02Z</time></trkpt><trkpt lat="45.48509309514521" lon="11.223114143905065"><ele>402.0</ele><time>2026-05-01T17:54:03Z</time></trkpt><trkpt lat="45.48516164565418" lon="11.22299230085789"><ele>402.0</ele><time>2026-05-01T17:54:04Z</time></trkpt><trkpt lat="45.48522769364089" lon="11.222864494840964"><ele>402.0</ele><time>2026-05-01T17:54:05Z</time></trkpt><trkpt lat="45.48529939597237" lon="11.222753193138686"><ele>402.0</ele><time>2026-05-01T17:54:06Z</time></trkpt><trkpt lat="45.48538174103941" lon="11.22266397777508"><ele>402.0</ele><time>2026-05-01T17:54:07Z</time></trkpt><trkpt lat="45.485493138367396" lon="11.222565736913852"><ele>405.0</ele><time>2026-05-01T17:54:08Z</time></trkpt><trkpt lat="45.48561222068412" lon="11.222501242089248"><ele>408.0</ele><time>2026-05-01T17:54:09Z</time></trkpt><trkpt lat="45.48576575877414" lon="11.222400737313654"><ele>411.0</ele><time>2026-05-01T17:54:10Z</time></trkpt><trkpt lat="45.485912741099845" lon="11.222307335867146"><ele>411.0</ele><time>2026-05-01T17:54:11Z</time></trkpt><trkpt lat="45.48603715473324" lon="11.222230287721601"><ele>411.0</ele><time>2026-05-01T17:54:12Z</time></trkpt><trkpt lat="45.486145448697044" lon="11.222164530748202"><ele>411.0</ele><time>2026-05-01T17:54:13Z</time></trkpt><trkpt lat="45.48624262852865" lon="11.222107955485045"><ele>411.0</ele><time>2026-05-01T17:54:14Z</time></trkpt><trkpt lat="45.48633956514095" lon="11.222063298795199"><ele>411.0</ele><time>2026-05-01T17:54:15Z</time></trkpt><trkpt lat="45.486429138150065" lon="11.222053497360909"><ele>411.0</ele><time>2026-05-01T17:54:16Z</time></trkpt><trkpt lat="45.486531404168204" lon="11.222043187390682"><ele>411.0</ele><time>2026-05-01T17:54:17Z</time></trkpt><trkpt lat="45.48663235255779" lon="11.222000216292741"><ele>411.0</ele><time>2026-05-01T17:54:18Z</time></trkpt><trkpt lat="45.486721246959235" lon="11.2219112270446"><ele>411.0</ele><time>2026-05-01T17:54:19Z</time></trkpt><trkpt lat="45.48682150416398" lon="11.221843223190023"><ele>411.0</ele><time>2026-05-01T17:54:20Z</time></trkpt><trkpt lat="45.48691170578432" lon="11.221773115776985"><ele>411.0</ele><time>2026-05-01T17:54:21Z</time></trkpt><trkpt lat="45.48700191359418" lon="11.22170663916206"><ele>411.0</ele><time>2026-05-01T17:54:22Z</time></trkpt><trkpt lat="45.48708127919187" lon="11.221651718499043"><ele>411.0</ele><time>2026-05-01T17:54:23Z</time></trkpt><trkpt lat="45.48714878297703" lon="11.22161511997451"><ele>411.0</ele><time>2026-05-01T17:54:24Z</time></trkpt><trkpt lat="45.487181231716804" lon="11.221471976467116"><ele>410.0</ele><time>2026-05-01T17:54:26Z</time></trkpt><trkpt lat="45.48714380406654" lon="11.221397200638785"><ele>409.0</ele><time>2026-05-01T17:54:27Z</time></trkpt><trkpt lat="45.487085837976394" lon="11.221306369354751"><ele>408.0</ele><time>2026-05-01T17:54:28Z</time></trkpt><trkpt lat="45.487028651367" lon="11.221183381509622"><ele>407.0</ele><time>2026-05-01T17:54:29Z</time></trkpt><trkpt lat="45.486982143191085" lon="11.221025408337358"><ele>406.0</ele><time>2026-05-01T17:54:30Z</time></trkpt><trkpt lat="45.48693159363123" lon="11.220863830616585"><ele>406.0</ele><time>2026-05-01T17:54:31Z</time></trkpt><trkpt lat="45.48686244797334" lon="11.220681483885699"><ele>406.0</ele><time>2026-05-01T17:54:32Z</time></trkpt><trkpt lat="45.4868269630588" lon="11.220542428368063"><ele>406.0</ele><time>2026-05-01T17:54:33Z</time></trkpt><trkpt lat="45.48680663645333" lon="11.220428867118414"><ele>406.0</ele><time>2026-05-01T17:54:34Z</time></trkpt><trkpt lat="45.48679515093817" lon="11.220340533533705"><ele>406.0</ele><time>2026-05-01T17:54:35Z</time></trkpt><trkpt lat="45.48687082687638" lon="11.220188625087626"><ele>404.8</ele><time>2026-05-01T17:54:37Z</time></trkpt><trkpt lat="45.48695648421603" lon="11.220143823741974"><ele>403.6</ele><time>2026-05-01T17:54:38Z</time></trkpt><trkpt lat="45.48702738977128" lon="11.220037889970664"><ele>402.4</ele><time>2026-05-01T17:54:39Z</time></trkpt><trkpt lat="45.4870971367822" lon="11.21993871417337"><ele>401.2</ele><time>2026-05-01T17:54:40Z</time></trkpt><trkpt lat="45.487157016019104" lon="11.219837806144234"><ele>400.0</ele><time>2026-05-01T17:54:41Z</time></trkpt><trkpt lat="45.487219676640905" lon="11.219734707870042"><ele>400.00000000000006</ele><time>2026-05-01T17:54:42Z</time></trkpt><trkpt lat="45.48728359529307" lon="11.21965132995967"><ele>400.0</ele><time>2026-05-01T17:54:43Z</time></trkpt><trkpt lat="45.4873589045751" lon="11.219584779024732"><ele>400.0</ele><time>2026-05-01T17:54:44Z</time></trkpt><trkpt lat="45.487427850750876" lon="11.219516832351976"><ele>400.0</ele><time>2026-05-01T17:54:45Z</time></trkpt><trkpt lat="45.487485296701536" lon="11.219434230780376"><ele>400.00000000000006</ele><time>2026-05-01T17:54:46Z</time></trkpt><trkpt lat="45.487521176381094" lon="11.21934716991025"><ele>400.0</ele><time>2026-05-01T17:54:47Z</time></trkpt><trkpt lat="45.487535174506306" lon="11.21925809041936"><ele>400.00000000000006</ele><time>2026-05-01T17:54:48Z</time></trkpt><trkpt lat="45.48752185197675" lon="11.21916368351076"><ele>400.0</ele><time>2026-05-01T17:54:49Z</time></trkpt><trkpt lat="45.48747487856296" lon="11.219071203087589"><ele>400.0</ele><time>2026-05-01T17:54:50Z</time></trkpt><trkpt lat="45.48743251600051" lon="11.218976526594679"><ele>400.0</ele><time>2026-05-01T17:54:51Z</time></trkpt><trkpt lat="45.48739996332089" lon="11.218871902665525"><ele>400.00000000000006</ele><time>2026-05-01T17:54:52Z</time></trkpt><trkpt lat="45.487389615125316" lon="11.218762652225584"><ele>400.0</ele><time>2026-05-01T17:54:53Z</time></trkpt><trkpt lat="45.487421863734546" lon="11.218658003350633"><ele>398.8571428571429</ele><time>2026-05-01T17:54:54Z</time></trkpt><trkpt lat="45.487445028445684" lon="11.218551108876753"><ele>397.7142857142857</ele><time>2026-05-01T17:54:55Z</time></trkpt><trkpt lat="45.48747530138304" lon="11.218452724149632"><ele>396.57142857142856</ele><time>2026-05-01T17:54:56Z</time></trkpt><trkpt lat="45.48750937611949" lon="11.218353737389386"><ele>395.42857142857144</ele><time>2026-05-01T17:54:57Z</time></trkpt><trkpt lat="45.48753988842116" lon="11.21826288317678"><ele>394.2857142857143</ele><time>2026-05-01T17:54:58Z</time></trkpt><trkpt lat="45.487545503541526" lon="11.218169912548403"><ele>393.14285714285717</ele><time>2026-05-01T17:54:59Z</time></trkpt><trkpt lat="45.48750292024176" lon="11.218082694138419"><ele>392.0</ele><time>2026-05-01T17:55:00Z</time></trkpt><trkpt lat="45.487413172911104" lon="11.218054907014421"><ele>389.75</ele><time>2026-05-01T17:55:01Z</time></trkpt><trkpt lat="45.487323934607" lon="11.218027116221132"><ele>387.5</ele><time>2026-05-01T17:55:02Z</time></trkpt><trkpt lat="45.48722167619932" lon="11.217977756266695"><ele>385.25</ele><time>2026-05-01T17:55:03Z</time></trkpt><trkpt lat="45.487089535892444" lon="11.217951910650921"><ele>383.0</ele><time>2026-05-01T17:55:04Z</time></trkpt><trkpt lat="45.48695641308853" lon="11.217963408074068"><ele>382.25</ele><time>2026-05-01T17:55:05Z</time></trkpt><trkpt lat="45.48681126523496" lon="11.217933417035828"><ele>381.5</ele><time>2026-05-01T17:55:06Z</time></trkpt><trkpt lat="45.48667411821867" lon="11.217855911187108"><ele>380.75</ele><time>2026-05-01T17:55:07Z</time></trkpt><trkpt lat="45.48654367138949" lon="11.217797710105257"><ele>380.0</ele><time>2026-05-01T17:55:08Z</time></trkpt><trkpt lat="45.48641630136733" lon="11.217739870831736"><ele>380.0</ele><time>2026-05-01T17:55:09Z</time></trkpt><trkpt lat="45.48628649312738" lon="11.217684340293788"><ele>380.0</ele><time>2026-05-01T17:55:10Z</time></trkpt><trkpt lat="45.48614968860702" lon="11.2176422708856"><ele>380.0</ele><time>2026-05-01T17:55:11Z</time></trkpt><trkpt lat="45.486000806195726" lon="11.217618348876512"><ele>380.0</ele><time>2026-05-01T17:55:12Z</time></trkpt><trkpt lat="45.48585824518422" lon="11.217566785226209"><ele>379.75</ele><time>2026-05-01T17:55:13Z</time></trkpt><trkpt lat="45.48573935372407" lon="11.217487248549801"><ele>379.5</ele><time>2026-05-01T17:55:14Z</time></trkpt><trkpt lat="45.48560964570147" lon="11.21743882181896"><ele>379.25</ele><time>2026-05-01T17:55:15Z</time></trkpt><trkpt lat="45.48548403374408" lon="11.217364552487712"><ele>379.0</ele><time>2026-05-01T17:55:16Z</time></trkpt><trkpt lat="45.48535805866853" lon="11.217295398517182"><ele>378.25</ele><time>2026-05-01T17:55:17Z</time></trkpt><trkpt lat="45.48523485139293" lon="11.217231323317757"><ele>377.5</ele><time>2026-05-01T17:55:18Z</time></trkpt><trkpt lat="45.48512243136425" lon="11.217165012995375"><ele>376.75</ele><time>2026-05-01T17:55:19Z</time></trkpt><trkpt lat="45.48500841307073" lon="11.217111778496362"><ele>376.0</ele><time>2026-05-01T17:55:20Z</time></trkpt><trkpt lat="45.484891860838886" lon="11.217076235186914"><ele>376.0</ele><time>2026-05-01T17:55:21Z</time></trkpt><trkpt lat="45.48478212759954" lon="11.217050446323206"><ele>376.0</ele><time>2026-05-01T17:55:22Z</time></trkpt><trkpt lat="45.48469273366609" lon="11.217036746539053"><ele>376.0</ele><time>2026-05-01T17:55:23Z</time></trkpt><trkpt lat="45.48461932440387" lon="11.217009673712475"><ele>376.0</ele><time>2026-05-01T17:55:24Z</time></trkpt><trkpt lat="45.484503654062266" lon="11.216815083545159"><ele>374.6</ele><time>2026-05-01T17:55:27Z</time></trkpt><trkpt lat="45.484459751188254" lon="11.216700620689927"><ele>373.20000000000005</ele><time>2026-05-01T17:55:28Z</time></trkpt><trkpt lat="45.48437514455923" lon="11.2166334273078"><ele>371.79999999999995</ele><time>2026-05-01T17:55:29Z</time></trkpt><trkpt lat="45.48428175001616" lon="11.216575046537878"><ele>370.4</ele><time>2026-05-01T17:55:30Z</time></trkpt><trkpt lat="45.48418316957383" lon="11.216518659989429"><ele>369.0</ele><time>2026-05-01T17:55:31Z</time></trkpt><trkpt lat="45.48407944472173" lon="11.216469116760452"><ele>369.0</ele><time>2026-05-01T17:55:32Z</time></trkpt><trkpt lat="45.48398765727379" lon="11.216407766537698"><ele>369.0</ele><time>2026-05-01T17:55:33Z</time></trkpt><trkpt lat="45.48390433119764" lon="11.216340968413395"><ele>369.0</ele><time>2026-05-01T17:55:34Z</time></trkpt><trkpt lat="45.48382328023863" lon="11.216268489711728"><ele>369.0</ele><time>2026-05-01T17:55:35Z</time></trkpt><trkpt lat="45.48375443860133" lon="11.216185737336577"><ele>369.0</ele><time>2026-05-01T17:55:36Z</time></trkpt><trkpt lat="45.483699674726154" lon="11.216127826636614"><ele>365.4</ele><time>2026-05-01T17:55:37Z</time></trkpt><trkpt lat="45.48360518591467" lon="11.216105339939787"><ele>361.79999999999995</ele><time>2026-05-01T17:55:39Z</time></trkpt><trkpt lat="45.48356534377574" lon="11.21620134090144"><ele>358.20000000000005</ele><time>2026-05-01T17:55:40Z</time></trkpt><trkpt lat="45.483594210683435" lon="11.216327177344802"><ele>354.6</ele><time>2026-05-01T17:55:41Z</time></trkpt><trkpt lat="45.483648811705436" lon="11.216456457437669"><ele>351.0</ele><time>2026-05-01T17:55:42Z</time></trkpt><trkpt lat="45.48370234647691" lon="11.216617624278204"><ele>348.6666666666667</ele><time>2026-05-01T17:55:43Z</time></trkpt><trkpt lat="45.48375529332364" lon="11.216816655565808"><ele>346.33333333333337</ele><time>2026-05-01T17:55:44Z</time></trkpt><trkpt lat="45.483831177817834" lon="11.217020141165333"><ele>344.0</ele><time>2026-05-01T17:55:45Z</time></trkpt><trkpt lat="45.4839277425748" lon="11.217190170853629"><ele>349.6666666666667</ele><time>2026-05-01T17:55:46Z</time></trkpt><trkpt lat="45.484056472779926" lon="11.217523708690598"><ele>355.3333333333333</ele><time>2026-05-01T17:55:48Z</time></trkpt><trkpt lat="45.484112779531436" lon="11.217691528745558"><ele>361.0</ele><time>2026-05-01T17:55:49Z</time></trkpt><trkpt lat="45.484145285466234" lon="11.21785853856592"><ele>361.0</ele><time>2026-05-01T17:55:50Z</time></trkpt><trkpt lat="45.484195560159144" lon="11.218009833633058"><ele>361.0</ele><time>2026-05-01T17:55:51Z</time></trkpt><trkpt lat="45.48425047995767" lon="11.218150064482074"><ele>361.0</ele><time>2026-05-01T17:55:52Z</time></trkpt><trkpt lat="45.48433011982212" lon="11.218256023477712"><ele>361.0</ele><time>2026-05-01T17:55:53Z</time></trkpt><trkpt lat="45.48441624708674" lon="11.218346455141026"><ele>361.0</ele><time>2026-05-01T17:55:54Z</time></trkpt><trkpt lat="45.48449429658452" lon="11.21843359876106"><ele>362.4</ele><time>2026-05-01T17:55:55Z</time></trkpt><trkpt lat="45.48455494439932" lon="11.218531142615495"><ele>363.8</ele><time>2026-05-01T17:55:56Z</time></trkpt><trkpt lat="45.48458996787107" lon="11.218640784592893"><ele>365.2</ele><time>2026-05-01T17:55:57Z</time></trkpt><trkpt lat="45.484626726234005" lon="11.218741041981461"><ele>366.59999999999997</ele><time>2026-05-01T17:55:58Z</time></trkpt><trkpt lat="45.484666133502" lon="11.2188674284664"><ele>368.0</ele><time>2026-05-01T17:56:00Z</time></trkpt><trkpt lat="45.48456242632402" lon="11.21884335755288"><ele>362.75</ele><time>2026-05-01T17:56:03Z</time></trkpt><trkpt lat="45.484513850280116" lon="11.21873114633345"><ele>357.5</ele><time>2026-05-01T17:56:04Z</time></trkpt><trkpt lat="45.484442699552574" lon="11.21861524952725"><ele>352.25</ele><time>2026-05-01T17:56:05Z</time></trkpt><trkpt lat="45.4843365419693" lon="11.218513823384077"><ele>347.0</ele><time>2026-05-01T17:56:06Z</time></trkpt><trkpt lat="45.48419072403676" lon="11.218427175314721"><ele>347.0</ele><time>2026-05-01T17:56:07Z</time></trkpt><trkpt lat="45.48405422835948" lon="11.218319010176659"><ele>347.0</ele><time>2026-05-01T17:56:08Z</time></trkpt><trkpt lat="45.48392049411805" lon="11.218179358706635"><ele>347.0</ele><time>2026-05-01T17:56:09Z</time></trkpt><trkpt lat="45.483801492667055" lon="11.218021107047804"><ele>341.33333333333337</ele><time>2026-05-01T17:56:10Z</time></trkpt><trkpt lat="45.48368659809009" lon="11.217855279501693"><ele>335.6666666666667</ele><time>2026-05-01T17:56:11Z</time></trkpt><trkpt lat="45.483572470271845" lon="11.217683464731968"><ele>330.0</ele><time>2026-05-01T17:56:12Z</time></trkpt><trkpt lat="45.4834662788137" lon="11.21750853651986"><ele>330.0</ele><time>2026-05-01T17:56:13Z</time></trkpt><trkpt lat="45.48335807116273" lon="11.217330885074245"><ele>330.0</ele><time>2026-05-01T17:56:14Z</time></trkpt><trkpt lat="45.48325439740818" lon="11.217153492952464"><ele>330.0</ele><time>2026-05-01T17:56:15Z</time></trkpt><trkpt lat="45.48316104968106" lon="11.216981480671995"><ele>327.3333333333333</ele><time>2026-05-01T17:56:16Z</time></trkpt><trkpt lat="45.48305949550334" lon="11.216809863883261"><ele>324.66666666666663</ele><time>2026-05-01T17:56:17Z</time></trkpt><trkpt lat="45.482962155966874" lon="11.216643362282372"><ele>322.0</ele><time>2026-05-01T17:56:18Z</time></trkpt><trkpt lat="45.48286240429" lon="11.216485433072563"><ele>322.0</ele><time>2026-05-01T17:56:19Z</time></trkpt><trkpt lat="45.48276941959602" lon="11.216333683707216"><ele>322.0</ele><time>2026-05-01T17:56:20Z</time></trkpt><trkpt lat="45.48268106794639" lon="11.21618336701414"><ele>322.0</ele><time>2026-05-01T17:56:21Z</time></trkpt><trkpt lat="45.48260271882278" lon="11.216013851097646"><ele>322.0</ele><time>2026-05-01T17:56:22Z</time></trkpt><trkpt lat="45.48251688749669" lon="11.215860290480421"><ele>322.0</ele><time>2026-05-01T17:56:23Z</time></trkpt><trkpt lat="45.48244111774806" lon="11.215719078784138"><ele>322.0</ele><time>2026-05-01T17:56:24Z</time></trkpt><trkpt lat="45.482380152723074" lon="11.215576623831938"><ele>322.0</ele><time>2026-05-01T17:56:25Z</time></trkpt><trkpt lat="45.48234149295734" lon="11.215416938321006"><ele>322.0</ele><time>2026-05-01T17:56:26Z</time></trkpt><trkpt lat="45.482304700443" lon="11.215249813046405"><ele>321.5</ele><time>2026-05-01T17:56:27Z</time></trkpt><trkpt lat="45.48228457164367" lon="11.215079103377084"><ele>321.0</ele><time>2026-05-01T17:56:28Z</time></trkpt><trkpt lat="45.48228069680649" lon="11.214908403572096"><ele>320.5</ele><time>2026-05-01T17:56:29Z</time></trkpt><trkpt lat="45.48228952217841" lon="11.214725585256417"><ele>320.0</ele><time>2026-05-01T17:56:30Z</time></trkpt><trkpt lat="45.48230379207271" lon="11.214533793806762"><ele>318.0</ele><time>2026-05-01T17:56:31Z</time></trkpt><trkpt lat="45.48231919560964" lon="11.214333462292348"><ele>316.0</ele><time>2026-05-01T17:56:32Z</time></trkpt><trkpt lat="45.48232195951311" lon="11.214138112002297"><ele>314.0</ele><time>2026-05-01T17:56:33Z</time></trkpt><trkpt lat="45.4822880107605" lon="11.213948041926226"><ele>312.0</ele><time>2026-05-01T17:56:34Z</time></trkpt><trkpt lat="45.48226310870215" lon="11.21376423901576"><ele>309.5</ele><time>2026-05-01T17:56:35Z</time></trkpt><trkpt lat="45.48224507187476" lon="11.213580891076944"><ele>307.0</ele><time>2026-05-01T17:56:36Z</time></trkpt><trkpt lat="45.482179960235136" lon="11.213420493289455"><ele>304.5</ele><time>2026-05-01T17:56:37Z</time></trkpt><trkpt lat="45.48211724438835" lon="11.213260779233327"><ele>302.0</ele><time>2026-05-01T17:56:38Z</time></trkpt><trkpt lat="45.482039079104716" lon="11.21310698347255"><ele>299.5</ele><time>2026-05-01T17:56:39Z</time></trkpt><trkpt lat="45.48194277277668" lon="11.21296910879665"><ele>297.0</ele><time>2026-05-01T17:56:40Z</time></trkpt><trkpt lat="45.481837832476565" lon="11.212844541061717"><ele>294.5</ele><time>2026-05-01T17:56:41Z</time></trkpt><trkpt lat="45.48174818784853" lon="11.212744930536118"><ele>292.0</ele><time>2026-05-01T17:56:42Z</time></trkpt><trkpt lat="45.48165786293013" lon="11.212659309294471"><ele>292.0</ele><time>2026-05-01T17:56:43Z</time></trkpt><trkpt lat="45.48157089068008" lon="11.212587060751884"><ele>292.0</ele><time>2026-05-01T17:56:44Z</time></trkpt><trkpt lat="45.48150906492633" lon="11.212533372250348"><ele>292.0</ele><time>2026-05-01T17:56:45Z</time></trkpt><trkpt lat="45.48141165896468" lon="11.212478501109295"><ele>292.0</ele><time>2026-05-01T17:56:47Z</time></trkpt><trkpt lat="45.48135972329449" lon="11.212605849537495"><ele>292.0</ele><time>2026-05-01T17:56:49Z</time></trkpt><trkpt lat="45.481454047239914" lon="11.212768970468458"><ele>292.0</ele><time>2026-05-01T17:56:51Z</time></trkpt><trkpt lat="45.48152446768096" lon="11.212866100541842"><ele>292.0</ele><time>2026-05-01T17:56:52Z</time></trkpt><trkpt lat="45.48161341610838" lon="11.212973359774042"><ele>292.0</ele><time>2026-05-01T17:56:53Z</time></trkpt><trkpt lat="45.48171127610805" lon="11.213094686085553"><ele>292.0</ele><time>2026-05-01T17:56:54Z</time></trkpt><trkpt lat="45.48180687017918" lon="11.213232673440737"><ele>291.2</ele><time>2026-05-01T17:56:55Z</time></trkpt><trkpt lat="45.481885346009584" lon="11.213372240028601"><ele>290.4</ele><time>2026-05-01T17:56:56Z</time></trkpt><trkpt lat="45.48193650893234" lon="11.213508132795436"><ele>289.6</ele><time>2026-05-01T17:56:57Z</time></trkpt><trkpt lat="45.481979075674246" lon="11.213630267141006"><ele>288.8</ele><time>2026-05-01T17:56:58Z</time></trkpt><trkpt lat="45.48200543785379" lon="11.213719084881387"><ele>288.0</ele><time>2026-05-01T17:56:59Z</time></trkpt><trkpt lat="45.482001022306505" lon="11.213812081546159"><ele>288.0</ele><time>2026-05-01T17:57:01Z</time></trkpt><trkpt lat="45.481922418163336" lon="11.213783133400977"><ele>288.0</ele><time>2026-05-01T17:57:03Z</time></trkpt><trkpt lat="45.48193475868301" lon="11.213678365042904"><ele>288.0</ele><time>2026-05-01T17:57:04Z</time></trkpt><trkpt lat="45.48189769464092" lon="11.213563648559989"><ele>288.0</ele><time>2026-05-01T17:57:05Z</time></trkpt><trkpt lat="45.48184141835282" lon="11.213426884570628"><ele>288.0</ele><time>2026-05-01T17:57:06Z</time></trkpt><trkpt lat="45.48175743726824" lon="11.213325360908225"><ele>288.0</ele><time>2026-05-01T17:57:07Z</time></trkpt><trkpt lat="45.48165881577064" lon="11.213232137534124"><ele>288.0</ele><time>2026-05-01T17:57:08Z</time></trkpt><trkpt lat="45.48153180188148" lon="11.213157208255716"><ele>288.0</ele><time>2026-05-01T17:57:09Z</time></trkpt><trkpt lat="45.481414923289805" lon="11.21305672932575"><ele>288.0</ele><time>2026-05-01T17:57:10Z</time></trkpt><trkpt lat="45.48129496120999" lon="11.212983126616423"><ele>285.25</ele><time>2026-05-01T17:57:11Z</time></trkpt><trkpt lat="45.48117144412045" lon="11.212916890164264"><ele>282.5</ele><time>2026-05-01T17:57:12Z</time></trkpt><trkpt lat="45.48104801507375" lon="11.212848170355553"><ele>279.75</ele><time>2026-05-01T17:57:13Z</time></trkpt><trkpt lat="45.480930171573114" lon="11.212759875943556"><ele>277.0</ele><time>2026-05-01T17:57:14Z</time></trkpt><trkpt lat="45.48082631747615" lon="11.212644100415968"><ele>277.0</ele><time>2026-05-01T17:57:15Z</time></trkpt><trkpt lat="45.48073439023967" lon="11.212513863319876"><ele>277.0</ele><time>2026-05-01T17:57:16Z</time></trkpt><trkpt lat="45.48064388188132" lon="11.212366726956065"><ele>277.0</ele><time>2026-05-01T17:57:17Z</time></trkpt><trkpt lat="45.480543704665024" lon="11.212208836270156"><ele>277.0</ele><time>2026-05-01T17:57:18Z</time></trkpt><trkpt lat="45.48045394100769" lon="11.212062479772353"><ele>272.5</ele><time>2026-05-01T17:57:19Z</time></trkpt><trkpt lat="45.48037835356382" lon="11.211913410998834"><ele>268.0</ele><time>2026-05-01T17:57:20Z</time></trkpt><trkpt lat="45.48030628501564" lon="11.211787487747323"><ele>263.5</ele><time>2026-05-01T17:57:21Z</time></trkpt><trkpt lat="45.48023523079261" lon="11.211665494663682"><ele>259.0</ele><time>2026-05-01T17:57:22Z</time></trkpt><trkpt lat="45.48016683263415" lon="11.211533525946653"><ele>261.0</ele><time>2026-05-01T17:57:23Z</time></trkpt><trkpt lat="45.480109292087704" lon="11.211403086074155"><ele>263.0</ele><time>2026-05-01T17:57:24Z</time></trkpt><trkpt lat="45.48004885053201" lon="11.211262255234816"><ele>265.0</ele><time>2026-05-01T17:57:25Z</time></trkpt><trkpt lat="45.48000032694172" lon="11.211117913207342"><ele>267.0</ele><time>2026-05-01T17:57:26Z</time></trkpt><trkpt lat="45.479954293117466" lon="11.21093790282511"><ele>267.0</ele><time>2026-05-01T17:57:27Z</time></trkpt><trkpt lat="45.47990770708698" lon="11.210716485672531"><ele>267.0</ele><time>2026-05-01T17:57:28Z</time></trkpt><trkpt lat="45.479868588744" lon="11.210486213696495"><ele>267.0</ele><time>2026-05-01T17:57:29Z</time></trkpt><trkpt lat="45.47982203539723" lon="11.210294062811341"><ele>267.2</ele><time>2026-05-01T17:57:30Z</time></trkpt><trkpt lat="45.47979773567371" lon="11.210138908260852"><ele>267.4</ele><time>2026-05-01T17:57:31Z</time></trkpt><trkpt lat="45.47975864515493" lon="11.209994983756399"><ele>267.6</ele><time>2026-05-01T17:57:32Z</time></trkpt><trkpt lat="45.47974200272918" lon="11.209844927950224"><ele>267.8</ele><time>2026-05-01T17:57:33Z</time></trkpt><trkpt lat="45.47971490241034" lon="11.209697329170185"><ele>268.0</ele><time>2026-05-01T17:57:34Z</time></trkpt><trkpt lat="45.47966993452268" lon="11.20954170611215"><ele>265.75</ele><time>2026-05-01T17:57:35Z</time></trkpt><trkpt lat="45.479610796257695" lon="11.209388319196615"><ele>263.5</ele><time>2026-05-01T17:57:36Z</time></trkpt><trkpt lat="45.479538102707146" lon="11.209231752613103"><ele>261.25</ele><time>2026-05-01T17:57:37Z</time></trkpt><trkpt lat="45.47946154146423" lon="11.209086116019824"><ele>259.0</ele><time>2026-05-01T17:57:38Z</time></trkpt><trkpt lat="45.47938941427788" lon="11.208941085082333"><ele>257.0</ele><time>2026-05-01T17:57:39Z</time></trkpt><trkpt lat="45.47932486593318" lon="11.208798545527747"><ele>255.0</ele><time>2026-05-01T17:57:40Z</time></trkpt><trkpt lat="45.47924474036351" lon="11.208675366976241"><ele>253.0</ele><time>2026-05-01T17:57:41Z</time></trkpt><trkpt lat="45.47914531714905" lon="11.208580916616047"><ele>251.0</ele><time>2026-05-01T17:57:42Z</time></trkpt><trkpt lat="45.4790261517839" lon="11.20851848640133"><ele>251.0</ele><time>2026-05-01T17:57:43Z</time></trkpt><trkpt lat="45.47889514220311" lon="11.208448282292153"><ele>251.0</ele><time>2026-05-01T17:57:44Z</time></trkpt><trkpt lat="45.478781932546674" lon="11.20835075175618"><ele>251.0</ele><time>2026-05-01T17:57:45Z</time></trkpt><trkpt lat="45.478682787461" lon="11.20826484086693"><ele>251.0</ele><time>2026-05-01T17:57:46Z</time></trkpt><trkpt lat="45.4785871563821" lon="11.208184436121607"><ele>249.33333333333334</ele><time>2026-05-01T17:57:47Z</time></trkpt><trkpt lat="45.47851123933495" lon="11.208102474306397"><ele>247.66666666666669</ele><time>2026-05-01T17:57:48Z</time></trkpt><trkpt lat="45.47845499887524" lon="11.208031787656884"><ele>246.0</ele><time>2026-05-01T17:57:49Z</time></trkpt><trkpt lat="45.478373412184816" lon="11.207996750263405"><ele>244.33333333333331</ele><time>2026-05-01T17:57:51Z</time></trkpt><trkpt lat="45.47831800071481" lon="11.20808750488034"><ele>242.66666666666666</ele><time>2026-05-01T17:57:52Z</time></trkpt><trkpt lat="45.478309303931596" lon="11.208193841260272"><ele>241.0</ele><time>2026-05-01T17:57:53Z</time></trkpt><trkpt lat="45.47833488711992" lon="11.208296698026828"><ele>239.25</ele><time>2026-05-01T17:57:54Z</time></trkpt><trkpt lat="45.478517829776514" lon="11.208328602147947"><ele>237.5</ele><time>2026-05-01T17:57:55Z</time></trkpt><trkpt lat="45.47861282628334" lon="11.208424701969465"><ele>235.75</ele><time>2026-05-01T17:57:56Z</time></trkpt><trkpt lat="45.47870867238336" lon="11.208516372448132"><ele>234.0</ele><time>2026-05-01T17:57:57Z</time></trkpt><trkpt lat="45.47881627440308" lon="11.208598751338096"><ele>235.33333333333334</ele><time>2026-05-01T17:57:58Z</time></trkpt><trkpt lat="45.47889441325716" lon="11.208676282776533"><ele>236.66666666666669</ele><time>2026-05-01T17:57:59Z</time></trkpt><trkpt lat="45.47895382162833" lon="11.208761108258985"><ele>238.0</ele><time>2026-05-01T17:58:00Z</time></trkpt><trkpt lat="45.47900974070214" lon="11.208823716304591"><ele>239.33333333333334</ele><time>2026-05-01T17:58:01Z</time></trkpt><trkpt lat="45.47906761638773" lon="11.208866836359535"><ele>240.66666666666669</ele><time>2026-05-01T17:58:02Z</time></trkpt><trkpt lat="45.47905657776906" lon="11.2090166525062"><ele>242.0</ele><time>2026-05-01T17:58:04Z</time></trkpt><trkpt lat="45.47895345521014" lon="11.208997820551126"><ele>240.39999999999998</ele><time>2026-05-01T17:58:06Z</time></trkpt><trkpt lat="45.47891115100643" lon="11.20889322728969"><ele>238.79999999999998</ele><time>2026-05-01T17:58:07Z</time></trkpt><trkpt lat="45.47885241666336" lon="11.208795893518916"><ele>237.2</ele><time>2026-05-01T17:58:08Z</time></trkpt><trkpt lat="45.47877420521571" lon="11.208697727520123"><ele>235.6</ele><time>2026-05-01T17:58:09Z</time></trkpt><trkpt lat="45.47866625566992" lon="11.208614312437502"><ele>234.0</ele><time>2026-05-01T17:58:10Z</time></trkpt><trkpt lat="45.47855627529" lon="11.20853295274014"><ele>234.0</ele><time>2026-05-01T17:58:11Z</time></trkpt><trkpt lat="45.47844351083466" lon="11.208450596286424"><ele>234.0</ele><time>2026-05-01T17:58:12Z</time></trkpt><trkpt lat="45.47832704100528" lon="11.208366934954249"><ele>234.0</ele><time>2026-05-01T17:58:13Z</time></trkpt><trkpt lat="45.47821273490176" lon="11.20828566686854"><ele>234.0</ele><time>2026-05-01T17:58:14Z</time></trkpt><trkpt lat="45.478098939949085" lon="11.208204571572669"><ele>236.33333333333331</ele><time>2026-05-01T17:58:15Z</time></trkpt><trkpt lat="45.47798492053607" lon="11.208126779206873"><ele>238.66666666666666</ele><time>2026-05-01T17:58:16Z</time></trkpt><trkpt lat="45.477779032975334" lon="11.207958250372439"><ele>241.0</ele><time>2026-05-01T17:58:18Z</time></trkpt><trkpt lat="45.477676291445114" lon="11.207876163149606"><ele>236.75</ele><time>2026-05-01T17:58:19Z</time></trkpt><trkpt lat="45.47757758267801" lon="11.207787972315716"><ele>232.5</ele><time>2026-05-01T17:58:20Z</time></trkpt><trkpt lat="45.47748122770492" lon="11.20770244382918"><ele>228.25</ele><time>2026-05-01T17:58:21Z</time></trkpt><trkpt lat="45.47737528135393" lon="11.20761138870559"><ele>224.0</ele><time>2026-05-01T17:58:22Z</time></trkpt><trkpt lat="45.47727810807852" lon="11.207523901729548"><ele>224.0</ele><time>2026-05-01T17:58:23Z</time></trkpt><trkpt lat="45.477187916338664" lon="11.207441384281015"><ele>223.99999999999997</ele><time>2026-05-01T17:58:24Z</time></trkpt><trkpt lat="45.47709740588887" lon="11.207365612470902"><ele>223.99999999999997</ele><time>2026-05-01T17:58:25Z</time></trkpt><trkpt lat="45.47701301741851" lon="11.207300603366622"><ele>224.0</ele><time>2026-05-01T17:58:26Z</time></trkpt><trkpt lat="45.47693502058655" lon="11.20721423602707"><ele>224.0</ele><time>2026-05-01T17:58:27Z</time></trkpt><trkpt lat="45.47685426330048" lon="11.207152144500773"><ele>221.66666666666669</ele><time>2026-05-01T17:58:28Z</time></trkpt><trkpt lat="45.4767840108679" lon="11.207058793015364"><ele>219.33333333333334</ele><time>2026-05-01T17:58:29Z</time></trkpt><trkpt lat="45.47673176712509" lon="11.206956794697836"><ele>217.0</ele><time>2026-05-01T17:58:30Z</time></trkpt><trkpt lat="45.47669418713994" lon="11.206856580767635"><ele>214.66666666666669</ele><time>2026-05-01T17:58:31Z</time></trkpt><trkpt lat="45.47668700093657" lon="11.206735589844497"><ele>212.33333333333334</ele><time>2026-05-01T17:58:32Z</time></trkpt><trkpt lat="45.47669391897094" lon="11.206612133983166"><ele>210.0</ele><time>2026-05-01T17:58:33Z</time></trkpt><trkpt lat="45.4767067293936" lon="11.2064972528466"><ele>207.8</ele><time>2026-05-01T17:58:34Z</time></trkpt><trkpt lat="45.4767316118953" lon="11.206394639402896"><ele>205.6</ele><time>2026-05-01T17:58:35Z</time></trkpt><trkpt lat="45.47677039242232" lon="11.20629167370052"><ele>203.39999999999998</ele><time>2026-05-01T17:58:36Z</time></trkpt><trkpt lat="45.4768383605986" lon="11.206196701733052"><ele>201.2</ele><time>2026-05-01T17:58:37Z</time></trkpt><trkpt lat="45.47690130729442" lon="11.206082354183708"><ele>199.0</ele><time>2026-05-01T17:58:38Z</time></trkpt><trkpt lat="45.47697150750726" lon="11.205963556910147"><ele>199.0</ele><time>2026-05-01T17:58:39Z</time></trkpt><trkpt lat="45.477032723713684" lon="11.205840451650573"><ele>199.0</ele><time>2026-05-01T17:58:40Z</time></trkpt><trkpt lat="45.47710739654736" lon="11.2057383561703"><ele>199.0</ele><time>2026-05-01T17:58:41Z</time></trkpt><trkpt lat="45.47718734718571" lon="11.205651057056595"><ele>199.0</ele><time>2026-05-01T17:58:42Z</time></trkpt><trkpt lat="45.47727213925324" lon="11.205571847030061"><ele>199.0</ele><time>2026-05-01T17:58:43Z</time></trkpt><trkpt lat="45.47735454547837" lon="11.20549134667435"><ele>197.39999999999998</ele><time>2026-05-01T17:58:44Z</time></trkpt><trkpt lat="45.47742527020424" lon="11.205404272128396"><ele>195.8</ele><time>2026-05-01T17:58:45Z</time></trkpt><trkpt lat="45.47749179429413" lon="11.205315879274778"><ele>194.2</ele><time>2026-05-01T17:58:46Z</time></trkpt><trkpt lat="45.47756294191149" lon="11.205220347889165"><ele>192.60000000000002</ele><time>2026-05-01T17:58:47Z</time></trkpt><trkpt lat="45.477637651782196" lon="11.205136841446635"><ele>191.0</ele><time>2026-05-01T17:58:48Z</time></trkpt><trkpt lat="45.477723906025126" lon="11.205030585459083"><ele>191.0</ele><time>2026-05-01T17:58:49Z</time></trkpt><trkpt lat="45.477815250091844" lon="11.204956185943368"><ele>191.0</ele><time>2026-05-01T17:58:50Z</time></trkpt><trkpt lat="45.477895836906534" lon="11.20486507088343"><ele>191.0</ele><time>2026-05-01T17:58:51Z</time></trkpt><trkpt lat="45.47797424591538" lon="11.204779515244887"><ele>191.0</ele><time>2026-05-01T17:58:52Z</time></trkpt><trkpt lat="45.47805544378621" lon="11.204699868305608"><ele>191.0</ele><time>2026-05-01T17:58:53Z</time></trkpt><trkpt lat="45.47813866167617" lon="11.204643103996329"><ele>188.20000000000002</ele><time>2026-05-01T17:58:54Z</time></trkpt><trkpt lat="45.478227984396675" lon="11.204587821713842"><ele>185.4</ele><time>2026-05-01T17:58:55Z</time></trkpt><trkpt lat="45.47831766500302" lon="11.204533534769734"><ele>182.6</ele><time>2026-05-01T17:58:56Z</time></trkpt><trkpt lat="45.47841030826433" lon="11.204471022914623"><ele>179.8</ele><time>2026-05-01T17:58:57Z</time></trkpt><trkpt lat="45.47847517032751" lon="11.204351036631442"><ele>177.0</ele><time>2026-05-01T17:58:58Z</time></trkpt><trkpt lat="45.47854337988868" lon="11.204261456783216"><ele>177.0</ele><time>2026-05-01T17:58:59Z</time></trkpt><trkpt lat="45.478616253580235" lon="11.204189564294763"><ele>177.0</ele><time>2026-05-01T17:59:00Z</time></trkpt><trkpt lat="45.4787073142708" lon="11.20418899447118"><ele>177.0</ele><time>2026-05-01T17:59:01Z</time></trkpt><trkpt lat="45.478795704694015" lon="11.204188124833923"><ele>177.0</ele><time>2026-05-01T17:59:02Z</time></trkpt><trkpt lat="45.47889695557062" lon="11.20420002477335"><ele>177.0</ele><time>2026-05-01T17:59:03Z</time></trkpt><trkpt lat="45.47898356676369" lon="11.204219332193803"><ele>176.5</ele><time>2026-05-01T17:59:04Z</time></trkpt><trkpt lat="45.479066923320076" lon="11.204221290424421"><ele>176.0</ele><time>2026-05-01T17:59:05Z</time></trkpt><trkpt lat="45.479139233909606" lon="11.204251159664159"><ele>175.5</ele><time>2026-05-01T17:59:06Z</time></trkpt><trkpt lat="45.479206732141805" lon="11.204289934235767"><ele>175.0</ele><time>2026-05-01T17:59:07Z</time></trkpt><trkpt lat="45.4792790255235" lon="11.20433322359493"><ele>174.5</ele><time>2026-05-01T17:59:08Z</time></trkpt><trkpt lat="45.47935839348184" lon="11.204386128539785"><ele>174.0</ele><time>2026-05-01T17:59:09Z</time></trkpt><trkpt lat="45.47944403577918" lon="11.204487861562693"><ele>174.0</ele><time>2026-05-01T17:59:10Z</time></trkpt><trkpt lat="45.47953694094417" lon="11.2045735748089"><ele>174.0</ele><time>2026-05-01T17:59:11Z</time></trkpt><trkpt lat="45.47963242035199" lon="11.204669834008152"><ele>174.0</ele><time>2026-05-01T17:59:12Z</time></trkpt><trkpt lat="45.479724331528736" lon="11.20476229116197"><ele>174.0</ele><time>2026-05-01T17:59:13Z</time></trkpt><trkpt lat="45.47979624026445" lon="11.2049159600405"><ele>173.0</ele><time>2026-05-01T17:59:14Z</time></trkpt><trkpt lat="45.479874227225004" lon="11.205059428030808"><ele>172.0</ele><time>2026-05-01T17:59:15Z</time></trkpt><trkpt lat="45.4799458525054" lon="11.205190032388998"><ele>171.0</ele><time>2026-05-01T17:59:16Z</time></trkpt><trkpt lat="45.48001960917275" lon="11.205295047100414"><ele>170.0</ele><time>2026-05-01T17:59:17Z</time></trkpt><trkpt lat="45.48006667270045" lon="11.205408751137144"><ele>169.0</ele><time>2026-05-01T17:59:18Z</time></trkpt><trkpt lat="45.48010813809184" lon="11.205515402350999"><ele>169.0</ele><time>2026-05-01T17:59:19Z</time></trkpt><trkpt lat="45.48014315995973" lon="11.20560341990744"><ele>169.0</ele><time>2026-05-01T17:59:20Z</time></trkpt><trkpt lat="45.480194217950235" lon="11.205699885035703"><ele>169.0</ele><time>2026-05-01T17:59:22Z</time></trkpt><trkpt lat="45.48027944161124" lon="11.205566112981543"><ele>169.0</ele><time>2026-05-01T17:59:24Z</time></trkpt><trkpt lat="45.48020037657182" lon="11.205473925753553"><ele>169.0</ele><time>2026-05-01T17:59:25Z</time></trkpt><trkpt lat="45.48016905989321" lon="11.20536085912764"><ele>169.0</ele><time>2026-05-01T17:59:26Z</time></trkpt><trkpt lat="45.48012615605528" lon="11.205235375071059"><ele>169.0</ele><time>2026-05-01T17:59:27Z</time></trkpt><trkpt lat="45.48007284707305" lon="11.205090728448779"><ele>169.0</ele><time>2026-05-01T17:59:28Z</time></trkpt><trkpt lat="45.480021359116634" lon="11.204928681320045"><ele>169.0</ele><time>2026-05-01T17:59:29Z</time></trkpt><trkpt lat="45.479963312360226" lon="11.204759055874336"><ele>165.5</ele><time>2026-05-01T17:59:30Z</time></trkpt><trkpt lat="45.479905570031654" lon="11.204593266521965"><ele>162.0</ele><time>2026-05-01T17:59:31Z</time></trkpt><trkpt lat="45.47984611244157" lon="11.20443725043047"><ele>158.5</ele><time>2026-05-01T17:59:32Z</time></trkpt><trkpt lat="45.4797887564737" lon="11.204291097878153"><ele>155.0</ele><time>2026-05-01T17:59:33Z</time></trkpt><trkpt lat="45.47974088472386" lon="11.204142992316592"><ele>155.0</ele><time>2026-05-01T17:59:34Z</time></trkpt><trkpt lat="45.47968545823146" lon="11.204012261068238"><ele>155.0</ele><time>2026-05-01T17:59:35Z</time></trkpt><trkpt lat="45.4796426183" lon="11.203886746726972"><ele>155.0</ele><time>2026-05-01T17:59:36Z</time></trkpt><trkpt lat="45.47959589517984" lon="11.203790393252886"><ele>155.0</ele><time>2026-05-01T17:59:37Z</time></trkpt><trkpt lat="45.479537265179516" lon="11.203672194064328"><ele>155.0</ele><time>2026-05-01T17:59:39Z</time></trkpt><trkpt lat="45.47960493153414" lon="11.203641437867402"><ele>155.0</ele><time>2026-05-01T17:59:41Z</time></trkpt><trkpt lat="45.479654974095446" lon="11.203702821566374"><ele>155.0</ele><time>2026-05-01T17:59:42Z</time></trkpt><trkpt lat="45.47971673757857" lon="11.203808412027342"><ele>155.0</ele><time>2026-05-01T17:59:43Z</time></trkpt><trkpt lat="45.47977297493466" lon="11.203916816364114"><ele>155.0</ele><time>2026-05-01T17:59:44Z</time></trkpt><trkpt lat="45.47981750836313" lon="11.204012911621172"><ele>155.0</ele><time>2026-05-01T17:59:45Z</time></trkpt><trkpt lat="45.47988106912453" lon="11.204118366417338"><ele>155.0</ele><time>2026-05-01T17:59:47Z</time></trkpt><trkpt lat="45.47996214354289" lon="11.204061098194414"><ele>152.8</ele><time>2026-05-01T17:59:49Z</time></trkpt><trkpt lat="45.4799156484628" lon="11.203964359173208"><ele>150.6</ele><time>2026-05-01T17:59:50Z</time></trkpt><trkpt lat="45.479867440763854" lon="11.203867138143817"><ele>148.4</ele><time>2026-05-01T17:59:51Z</time></trkpt><trkpt lat="45.4798071981001" lon="11.203746183128072"><ele>146.2</ele><time>2026-05-01T17:59:52Z</time></trkpt><trkpt lat="45.47975291593569" lon="11.203615400343566"><ele>144.0</ele><time>2026-05-01T17:59:53Z</time></trkpt><trkpt lat="45.47972016917188" lon="11.203472371284393"><ele>144.0</ele><time>2026-05-01T17:59:54Z</time></trkpt><trkpt lat="45.479694070145634" lon="11.203320958546335"><ele>144.0</ele><time>2026-05-01T17:59:55Z</time></trkpt><trkpt lat="45.47967393437479" lon="11.203179243466817"><ele>144.0</ele><time>2026-05-01T17:59:56Z</time></trkpt><trkpt lat="45.47964931135399" lon="11.203039969735228"><ele>144.0</ele><time>2026-05-01T17:59:57Z</time></trkpt><trkpt lat="45.47961561832994" lon="11.202914818414644"><ele>144.0</ele><time>2026-05-01T17:59:58Z</time></trkpt><trkpt lat="45.47957741068127" lon="11.202800956579937"><ele>141.8</ele><time>2026-05-01T17:59:59Z</time></trkpt><trkpt lat="45.479527534559615" lon="11.20269826429658"><ele>139.60000000000002</ele><time>2026-05-01T18:00:00Z</time></trkpt><trkpt lat="45.47946310500345" lon="11.202614054960073"><ele>137.4</ele><time>2026-05-01T18:00:01Z</time></trkpt><trkpt lat="45.47938753924034" lon="11.202557856332415"><ele>135.20000000000002</ele><time>2026-05-01T18:00:02Z</time></trkpt><trkpt lat="45.47929847958397" lon="11.202517619490715"><ele>133.0</ele><time>2026-05-01T18:00:03Z</time></trkpt><trkpt lat="45.479194940912265" lon="11.202502939056327"><ele>133.0</ele><time>2026-05-01T18:00:04Z</time></trkpt><trkpt lat="45.47907466360736" lon="11.202505263012952"><ele>133.0</ele><time>2026-05-01T18:00:05Z</time></trkpt><trkpt lat="45.47895565100222" lon="11.202514298223516"><ele>133.0</ele><time>2026-05-01T18:00:06Z</time></trkpt><trkpt lat="45.47885147215303" lon="11.202510546173096"><ele>133.0</ele><time>2026-05-01T18:00:07Z</time></trkpt><trkpt lat="45.47876031381449" lon="11.202515902959524"><ele>133.0</ele><time>2026-05-01T18:00:08Z</time></trkpt><trkpt lat="45.478662590043356" lon="11.202515589670833"><ele>132.20000000000002</ele><time>2026-05-01T18:00:09Z</time></trkpt><trkpt lat="45.478569431703235" lon="11.20248439926363"><ele>131.4</ele><time>2026-05-01T18:00:10Z</time></trkpt><trkpt lat="45.47847377816726" lon="11.202483980768838"><ele>130.60000000000002</ele><time>2026-05-01T18:00:11Z</time></trkpt><trkpt lat="45.478390030499085" lon="11.202438729768893"><ele>129.8</ele><time>2026-05-01T18:00:12Z</time></trkpt><trkpt lat="45.47830748680602" lon="11.202390983974707"><ele>129.0</ele><time>2026-05-01T18:00:13Z</time></trkpt><trkpt lat="45.47823597608318" lon="11.202320966578526"><ele>127.0</ele><time>2026-05-01T18:00:14Z</time></trkpt><trkpt lat="45.478176268900626" lon="11.202282013579644"><ele>125.0</ele><time>2026-05-01T18:00:15Z</time></trkpt><trkpt lat="45.47812335039816" lon="11.202210461645745"><ele>123.0</ele><time>2026-05-01T18:00:17Z</time></trkpt><trkpt lat="45.47820591462158" lon="11.202121699115457"><ele>121.0</ele><time>2026-05-01T18:00:19Z</time></trkpt><trkpt lat="45.47829455778351" lon="11.202123727169996"><ele>119.0</ele><time>2026-05-01T18:00:20Z</time></trkpt><trkpt lat="45.478386687380386" lon="11.202109595264439"><ele>117.0</ele><time>2026-05-01T18:00:21Z</time></trkpt><trkpt lat="45.47847890370569" lon="11.202083953718168"><ele>117.0</ele><time>2026-05-01T18:00:22Z</time></trkpt><trkpt lat="45.47856337221441" lon="11.202057999044047"><ele>116.99999999999999</ele><time>2026-05-01T18:00:23Z</time></trkpt><trkpt lat="45.47864849018637" lon="11.202024983331285"><ele>116.99999999999999</ele><time>2026-05-01T18:00:24Z</time></trkpt><trkpt lat="45.47873412707078" lon="11.201980031222774"><ele>117.0</ele><time>2026-05-01T18:00:25Z</time></trkpt><trkpt lat="45.4788205859698" lon="11.201921091141587"><ele>117.0</ele><time>2026-05-01T18:00:26Z</time></trkpt><trkpt lat="45.478903826039165" lon="11.201856420458235"><ele>116.83333333333333</ele><time>2026-05-01T18:00:27Z</time></trkpt><trkpt lat="45.478984121038955" lon="11.201788538813167"><ele>116.66666666666666</ele><time>2026-05-01T18:00:28Z</time></trkpt><trkpt lat="45.47905658765154" lon="11.201722605825125"><ele>116.5</ele><time>2026-05-01T18:00:29Z</time></trkpt><trkpt lat="45.479131630047426" lon="11.20165761279372"><ele>116.33333333333333</ele><time>2026-05-01T18:00:30Z</time></trkpt><trkpt lat="45.479195876929936" lon="11.201590425466598"><ele>116.16666666666666</ele><time>2026-05-01T18:00:31Z</time></trkpt><trkpt lat="45.47925339710814" lon="11.201517464991753"><ele>116.0</ele><time>2026-05-01T18:00:32Z</time></trkpt><trkpt lat="45.47925247555451" lon="11.201390472336195"><ele>115.99999999999999</ele><time>2026-05-01T18:00:33Z</time></trkpt><trkpt lat="45.479234869087136" lon="11.201283642463238"><ele>116.0</ele><time>2026-05-01T18:00:34Z</time></trkpt><trkpt lat="45.4791936054602" lon="11.201160781211177"><ele>116.0</ele><time>2026-05-01T18:00:36Z</time></trkpt><trkpt lat="45.47926955315595" lon="11.201100524603763"><ele>116.0</ele><time>2026-05-01T18:00:44Z</time></trkpt><trkpt lat="45.47936022510521" lon="11.201083539504557"><ele>115.99999999999999</ele><time>2026-05-01T18:00:45Z</time></trkpt><trkpt lat="45.47945593794558" lon="11.201082991420444"><ele>116.0</ele><time>2026-05-01T18:00:46Z</time></trkpt><trkpt lat="45.47955356700284" lon="11.201058687899517"><ele>116.83333333333333</ele><time>2026-05-01T18:00:47Z</time></trkpt><trkpt lat="45.47964429278021" lon="11.201018025314067"><ele>117.66666666666666</ele><time>2026-05-01T18:00:48Z</time></trkpt><trkpt lat="45.479721404990855" lon="11.200960892821778"><ele>118.5</ele><time>2026-05-01T18:00:49Z</time></trkpt><trkpt lat="45.479768291178885" lon="11.200875245707866"><ele>119.33333333333334</ele><time>2026-05-01T18:00:50Z</time></trkpt><trkpt lat="45.4798042864723" lon="11.200770598817273"><ele>120.16666666666667</ele><time>2026-05-01T18:00:51Z</time></trkpt><trkpt lat="45.47978866690985" lon="11.200615953143192"><ele>121.0</ele><time>2026-05-01T18:00:52Z</time></trkpt><trkpt lat="45.47975903789032" lon="11.200439489355539"><ele>121.00000000000001</ele><time>2026-05-01T18:00:53Z</time></trkpt><trkpt lat="45.47973061634053" lon="11.20028250886465"><ele>121.0</ele><time>2026-05-01T18:00:54Z</time></trkpt><trkpt lat="45.47970739087217" lon="11.200150911511232"><ele>121.0</ele><time>2026-05-01T18:00:55Z</time></trkpt><trkpt lat="45.479685128706194" lon="11.200029691039036"><ele>121.0</ele><time>2026-05-01T18:00:56Z</time></trkpt><trkpt lat="45.47969969441802" lon="11.19992701857018"><ele>121.00000000000001</ele><time>2026-05-01T18:00:57Z</time></trkpt><trkpt lat="45.47974893725573" lon="11.199852538894637"><ele>121.0</ele><time>2026-05-01T18:00:58Z</time></trkpt><trkpt lat="45.479827717614086" lon="11.199810896264397"><ele>120.5</ele><time>2026-05-01T18:00:59Z</time></trkpt><trkpt lat="45.47993764928112" lon="11.19979928018704"><ele>120.0</ele><time>2026-05-01T18:01:00Z</time></trkpt><trkpt lat="45.48006693932163" lon="11.199792026043209"><ele>119.5</ele><time>2026-05-01T18:01:01Z</time></trkpt><trkpt lat="45.48019555316823" lon="11.1997713448073"><ele>119.0</ele><time>2026-05-01T18:01:02Z</time></trkpt><trkpt lat="45.4803159478897" lon="11.199747370381191"><ele>120.0</ele><time>2026-05-01T18:01:03Z</time></trkpt><trkpt lat="45.48043453037984" lon="11.199722352941835"><ele>121.0</ele><time>2026-05-01T18:01:04Z</time></trkpt><trkpt lat="45.48054885475755" lon="11.199699356593635"><ele>122.0</ele><time>2026-05-01T18:01:05Z</time></trkpt><trkpt lat="45.48064746059999" lon="11.199679923591562"><ele>123.0</ele><time>2026-05-01T18:01:06Z</time></trkpt><trkpt lat="45.4807316674959" lon="11.199661775208574"><ele>124.0</ele><time>2026-05-01T18:01:07Z</time></trkpt><trkpt lat="45.48081007516968" lon="11.19964610229514"><ele>124.0</ele><time>2026-05-01T18:01:08Z</time></trkpt><trkpt lat="45.48087521334243" lon="11.199625817549915"><ele>124.0</ele><time>2026-05-01T18:01:09Z</time></trkpt><trkpt lat="45.480959463583396" lon="11.199507294030358"><ele>124.0</ele><time>2026-05-01T18:01:11Z</time></trkpt><trkpt lat="45.48098917252004" lon="11.19939916450412"><ele>124.0</ele><time>2026-05-01T18:01:12Z</time></trkpt><trkpt lat="45.48101385760567" lon="11.199268753394637"><ele>124.0</ele><time>2026-05-01T18:01:13Z</time></trkpt><trkpt lat="45.4810319857137" lon="11.199111066350655"><ele>124.5</ele><time>2026-05-01T18:01:14Z</time></trkpt><trkpt lat="45.481064257814765" lon="11.198931533082567"><ele>125.0</ele><time>2026-05-01T18:01:15Z</time></trkpt><trkpt lat="45.48108982435761" lon="11.19874920856379"><ele>125.5</ele><time>2026-05-01T18:01:16Z</time></trkpt><trkpt lat="45.481122371081035" lon="11.198552825144008"><ele>126.0</ele><time>2026-05-01T18:01:17Z</time></trkpt><trkpt lat="45.48115680986636" lon="11.198348440771797"><ele>128.25</ele><time>2026-05-01T18:01:18Z</time></trkpt><trkpt lat="45.481183395024665" lon="11.198166291302268"><ele>130.5</ele><time>2026-05-01T18:01:19Z</time></trkpt><trkpt lat="45.481209227793" lon="11.198006699349014"><ele>132.75</ele><time>2026-05-01T18:01:20Z</time></trkpt><trkpt lat="45.48122726731151" lon="11.19786150258586"><ele>135.0</ele><time>2026-05-01T18:01:21Z</time></trkpt><trkpt lat="45.48123271843972" lon="11.19770831177637"><ele>135.0</ele><time>2026-05-01T18:01:22Z</time></trkpt><trkpt lat="45.48120757663996" lon="11.197559297221398"><ele>135.0</ele><time>2026-05-01T18:01:23Z</time></trkpt><trkpt lat="45.48114758546116" lon="11.197449122070893"><ele>135.0</ele><time>2026-05-01T18:01:24Z</time></trkpt><trkpt lat="45.48105377903494" lon="11.197362910085213"><ele>135.0</ele><time>2026-05-01T18:01:25Z</time></trkpt><trkpt lat="45.48092560479801" lon="11.197307300526038"><ele>140.33333333333334</ele><time>2026-05-01T18:01:26Z</time></trkpt><trkpt lat="45.4807569947386" lon="11.197252836053762"><ele>145.66666666666669</ele><time>2026-05-01T18:01:27Z</time></trkpt><trkpt lat="45.480556810403414" lon="11.19724710312529"><ele>151.0</ele><time>2026-05-01T18:01:28Z</time></trkpt><trkpt lat="45.48037994050748" lon="11.197253861848436"><ele>151.6</ele><time>2026-05-01T18:01:29Z</time></trkpt><trkpt lat="45.48023405903255" lon="11.197267459397883"><ele>152.2</ele><time>2026-05-01T18:01:30Z</time></trkpt><trkpt lat="45.48011853226181" lon="11.197275247605793"><ele>152.8</ele><time>2026-05-01T18:01:31Z</time></trkpt><trkpt lat="45.480040581127014" lon="11.19727425982041"><ele>153.4</ele><time>2026-05-01T18:01:32Z</time></trkpt><trkpt lat="45.48000705199077" lon="11.197152998430019"><ele>154.0</ele><time>2026-05-01T18:01:34Z</time></trkpt><trkpt lat="45.48005368969456" lon="11.197085547281558"><ele>154.0</ele><time>2026-05-01T18:01:35Z</time></trkpt><trkpt lat="45.480171501969764" lon="11.197063240500057"><ele>154.0</ele><time>2026-05-01T18:01:36Z</time></trkpt><trkpt lat="45.480319589935284" lon="11.19700001661429"><ele>154.0</ele><time>2026-05-01T18:01:37Z</time></trkpt><trkpt lat="45.48050069021297" lon="11.196945787648568"><ele>152.5</ele><time>2026-05-01T18:01:38Z</time></trkpt><trkpt lat="45.48074275855217" lon="11.196850181974392"><ele>151.0</ele><time>2026-05-01T18:01:39Z</time></trkpt><trkpt lat="45.480999333716696" lon="11.196743990444205"><ele>151.0</ele><time>2026-05-01T18:01:40Z</time></trkpt><trkpt lat="45.481253825449016" lon="11.196678433731142"><ele>151.0</ele><time>2026-05-01T18:01:41Z</time></trkpt><trkpt lat="45.48149716566998" lon="11.196656792007824"><ele>150.66666666666669</ele><time>2026-05-01T18:01:42Z</time></trkpt><trkpt lat="45.48172444137452" lon="11.196655679258106"><ele>150.33333333333334</ele><time>2026-05-01T18:01:43Z</time></trkpt><trkpt lat="45.48192734364711" lon="11.196653804441606"><ele>150.0</ele><time>2026-05-01T18:01:44Z</time></trkpt><trkpt lat="45.4821056840322" lon="11.196635805556527"><ele>150.6</ele><time>2026-05-01T18:01:45Z</time></trkpt><trkpt lat="45.482241468706846" lon="11.196609062064322"><ele>151.2</ele><time>2026-05-01T18:01:46Z</time></trkpt><trkpt lat="45.48234610012448" lon="11.196576833960783"><ele>151.8</ele><time>2026-05-01T18:01:47Z</time></trkpt><trkpt lat="45.48243172969283" lon="11.196517978767178"><ele>152.4</ele><time>2026-05-01T18:01:48Z</time></trkpt><trkpt lat="45.48249039003424" lon="11.196422845360583"><ele>153.0</ele><time>2026-05-01T18:01:49Z</time></trkpt><trkpt lat="45.48248355751408" lon="11.196321942963014"><ele>157.0</ele><time>2026-05-01T18:01:50Z</time></trkpt><trkpt lat="45.48246458496719" lon="11.196217577239436"><ele>161.0</ele><time>2026-05-01T18:01:51Z</time></trkpt><trkpt lat="45.482354854187136" lon="11.19618154949093"><ele>165.0</ele><time>2026-05-01T18:01:52Z</time></trkpt><trkpt lat="45.48222394430172" lon="11.196160477067403"><ele>169.0</ele><time>2026-05-01T18:01:53Z</time></trkpt><trkpt lat="45.48204468459424" lon="11.196131380623038"><ele>170.5</ele><time>2026-05-01T18:01:54Z</time></trkpt><trkpt lat="45.48182876562029" lon="11.196094511177229"><ele>172.0</ele><time>2026-05-01T18:01:55Z</time></trkpt><trkpt lat="45.48158282916433" lon="11.196083139572089"><ele>172.0</ele><time>2026-05-01T18:01:56Z</time></trkpt><trkpt lat="45.48131267105399" lon="11.196102799275186"><ele>172.0</ele><time>2026-05-01T18:01:57Z</time></trkpt><trkpt lat="45.48103188912585" lon="11.196149527636324"><ele>175.5</ele><time>2026-05-01T18:01:58Z</time></trkpt><trkpt lat="45.480757865692595" lon="11.196153991489314"><ele>179.0</ele><time>2026-05-01T18:01:59Z</time></trkpt><trkpt lat="45.48050559318054" lon="11.196184048304337"><ele>181.0</ele><time>2026-05-01T18:02:00Z</time></trkpt><trkpt lat="45.48027139289461" lon="11.196186294848316"><ele>183.0</ele><time>2026-05-01T18:02:01Z</time></trkpt><trkpt lat="45.48005545996085" lon="11.196181780849455"><ele>183.0</ele><time>2026-05-01T18:02:02Z</time></trkpt><trkpt lat="45.47984873282822" lon="11.196171054251357"><ele>183.0</ele><time>2026-05-01T18:02:03Z</time></trkpt><trkpt lat="45.47963317541563" lon="11.196149612309224"><ele>183.0</ele><time>2026-05-01T18:02:04Z</time></trkpt><trkpt lat="45.47941494106835" lon="11.196106455640392"><ele>182.0</ele><time>2026-05-01T18:02:05Z</time></trkpt><trkpt lat="45.47919055212578" lon="11.196034385318814"><ele>181.0</ele><time>2026-05-01T18:02:06Z</time></trkpt><trkpt lat="45.478989298796925" lon="11.195948508203749"><ele>180.0</ele><time>2026-05-01T18:02:07Z</time></trkpt><trkpt lat="45.47881304786845" lon="11.19586358108933"><ele>180.33333333333334</ele><time>2026-05-01T18:02:08Z</time></trkpt><trkpt lat="45.47865818392358" lon="11.195773457606325"><ele>180.66666666666669</ele><time>2026-05-01T18:02:09Z</time></trkpt><trkpt lat="45.478476120911004" lon="11.195769051258518"><ele>181.0</ele><time>2026-05-01T18:02:10Z</time></trkpt><trkpt lat="45.478274377469695" lon="11.195806116937005"><ele>181.0</ele><time>2026-05-01T18:02:11Z</time></trkpt><trkpt lat="45.47803578130708" lon="11.195843070104063"><ele>181.0</ele><time>2026-05-01T18:02:12Z</time></trkpt><trkpt lat="45.47776313935015" lon="11.19588374333822"><ele>183.5</ele><time>2026-05-01T18:02:13Z</time></trkpt><trkpt lat="45.47756815999813" lon="11.195904366971282"><ele>186.0</ele><time>2026-05-01T18:02:14Z</time></trkpt><trkpt lat="45.47729440412023" lon="11.195939124978194"><ele>188.66666666666669</ele><time>2026-05-01T18:02:15Z</time></trkpt><trkpt lat="45.47706447651431" lon="11.195960934823265"><ele>191.33333333333334</ele><time>2026-05-01T18:02:16Z</time></trkpt><trkpt lat="45.47685615457" lon="11.195994318508504"><ele>194.0</ele><time>2026-05-01T18:02:17Z</time></trkpt><trkpt lat="45.476680529586645" lon="11.196016660116145"><ele>194.0</ele><time>2026-05-01T18:02:18Z</time></trkpt><trkpt lat="45.47654439385048" lon="11.196038319018193"><ele>194.0</ele><time>2026-05-01T18:02:19Z</time></trkpt><trkpt lat="45.47644633434307" lon="11.196052320837731"><ele>194.0</ele><time>2026-05-01T18:02:20Z</time></trkpt><trkpt lat="45.47637845756196" lon="11.196048461544486"><ele>194.0</ele><time>2026-05-01T18:02:21Z</time></trkpt><trkpt lat="45.476347570515934" lon="11.195934335284832"><ele>194.0</ele><time>2026-05-01T18:02:23Z</time></trkpt><trkpt lat="45.47646663968587" lon="11.195911570784777"><ele>194.0</ele><time>2026-05-01T18:02:25Z</time></trkpt><trkpt lat="45.47657251850181" lon="11.195870702923738"><ele>194.0</ele><time>2026-05-01T18:02:26Z</time></trkpt><trkpt lat="45.4766983032082" lon="11.195854672705181"><ele>194.0</ele><time>2026-05-01T18:02:27Z</time></trkpt><trkpt lat="45.47686593040463" lon="11.195789217429622"><ele>194.0</ele><time>2026-05-01T18:02:28Z</time></trkpt><trkpt lat="45.47707575336878" lon="11.195730290561642"><ele>202.0</ele><time>2026-05-01T18:02:29Z</time></trkpt><trkpt lat="45.47730763316777" lon="11.195631151110984"><ele>210.0</ele><time>2026-05-01T18:02:30Z</time></trkpt><trkpt lat="45.477559698963375" lon="11.195512766146821"><ele>210.0</ele><time>2026-05-01T18:02:31Z</time></trkpt><trkpt lat="45.47782529439465" lon="11.195384551036575"><ele>210.0</ele><time>2026-05-01T18:02:32Z</time></trkpt><trkpt lat="45.47807375008251" lon="11.195264610234764"><ele>207.66666666666669</ele><time>2026-05-01T18:02:33Z</time></trkpt><trkpt lat="45.478288180465384" lon="11.195161094743277"><ele>205.33333333333334</ele><time>2026-05-01T18:02:34Z</time></trkpt><trkpt lat="45.47847700957792" lon="11.19505045537016"><ele>203.0</ele><time>2026-05-01T18:02:35Z</time></trkpt><trkpt lat="45.47864585114396" lon="11.194972096034995"><ele>203.00000000000003</ele><time>2026-05-01T18:02:36Z</time></trkpt><trkpt lat="45.47874774767481" lon="11.19493275368988"><ele>203.0</ele><time>2026-05-01T18:02:37Z</time></trkpt><trkpt lat="45.478832600549" lon="11.194885839009192"><ele>203.0</ele><time>2026-05-01T18:02:38Z</time></trkpt><trkpt lat="45.478902866928536" lon="11.194836282586019"><ele>203.0</ele><time>2026-05-01T18:02:39Z</time></trkpt><trkpt lat="45.47892378628043" lon="11.194732869963438"><ele>203.00000000000003</ele><time>2026-05-01T18:02:40Z</time></trkpt><trkpt lat="45.47888657807727" lon="11.194639669078946"><ele>203.0</ele><time>2026-05-01T18:02:41Z</time></trkpt><trkpt lat="45.478796997633516" lon="11.1945772035842"><ele>205.75</ele><time>2026-05-01T18:02:42Z</time></trkpt><trkpt lat="45.478697878611015" lon="11.194486751881955"><ele>208.5</ele><time>2026-05-01T18:02:43Z</time></trkpt><trkpt lat="45.47859978060714" lon="11.194319462341413"><ele>211.25</ele><time>2026-05-01T18:02:44Z</time></trkpt><trkpt lat="45.47850891172382" lon="11.19416025662397"><ele>214.0</ele><time>2026-05-01T18:02:45Z</time></trkpt><trkpt lat="45.47841838661342" lon="11.19396868740956"><ele>214.2</ele><time>2026-05-01T18:02:46Z</time></trkpt><trkpt lat="45.47836360274173" lon="11.193813926261578"><ele>214.39999999999998</ele><time>2026-05-01T18:02:47Z</time></trkpt><trkpt lat="45.4783401442985" lon="11.193700524683202"><ele>214.6</ele><time>2026-05-01T18:02:48Z</time></trkpt><trkpt lat="45.47830916146855" lon="11.193590799733457"><ele>214.8</ele><time>2026-05-01T18:02:49Z</time></trkpt><trkpt lat="45.478318977251476" lon="11.193471734120594"><ele>215.0</ele><time>2026-05-01T18:02:50Z</time></trkpt><trkpt lat="45.47830081494068" lon="11.193352072245803"><ele>215.0</ele><time>2026-05-01T18:02:52Z</time></trkpt><trkpt lat="45.47821405058676" lon="11.193330151857932"><ele>215.0</ele><time>2026-05-01T18:02:54Z</time></trkpt><trkpt lat="45.4782152167875" lon="11.19350628912904"><ele>215.0</ele><time>2026-05-01T18:02:56Z</time></trkpt><trkpt lat="45.47821726148552" lon="11.19362780709422"><ele>215.0</ele><time>2026-05-01T18:02:57Z</time></trkpt><trkpt lat="45.47822538102182" lon="11.193723421001135"><ele>215.0</ele><time>2026-05-01T18:02:58Z</time></trkpt><trkpt lat="45.4781398067546" lon="11.1938530256811"><ele>215.00000000000003</ele><time>2026-05-01T18:03:00Z</time></trkpt><trkpt lat="45.478068716342946" lon="11.193888142886331"><ele>215.0</ele><time>2026-05-01T18:03:01Z</time></trkpt><trkpt lat="45.47799122035001" lon="11.193913527999877"><ele>215.0</ele><time>2026-05-01T18:03:02Z</time></trkpt><trkpt lat="45.47790684795514" lon="11.193903398335058"><ele>215.0</ele><time>2026-05-01T18:03:03Z</time></trkpt><trkpt lat="45.47781990434407" lon="11.193884040618677"><ele>215.00000000000003</ele><time>2026-05-01T18:03:04Z</time></trkpt><trkpt lat="45.4777440548042" lon="11.19389371823885"><ele>215.0</ele><time>2026-05-01T18:03:05Z</time></trkpt><trkpt lat="45.47767303555199" lon="11.19392132832478"><ele>215.25</ele><time>2026-05-01T18:03:06Z</time></trkpt><trkpt lat="45.477605937519904" lon="11.193991225473617"><ele>215.5</ele><time>2026-05-01T18:03:07Z</time></trkpt><trkpt lat="45.477519331943135" lon="11.194077734249568"><ele>215.75</ele><time>2026-05-01T18:03:08Z</time></trkpt><trkpt lat="45.47742791368098" lon="11.19420513010724"><ele>216.0</ele><time>2026-05-01T18:03:09Z</time></trkpt><trkpt lat="45.47730246865415" lon="11.194309309590261"><ele>217.0</ele><time>2026-05-01T18:03:10Z</time></trkpt><trkpt lat="45.47717788993027" lon="11.194415447791036"><ele>218.0</ele><time>2026-05-01T18:03:11Z</time></trkpt><trkpt lat="45.47705348508695" lon="11.194503441522665"><ele>219.0</ele><time>2026-05-01T18:03:12Z</time></trkpt><trkpt lat="45.47694368367465" lon="11.194563061272678"><ele>220.0</ele><time>2026-05-01T18:03:13Z</time></trkpt><trkpt lat="45.47682524180783" lon="11.194610201921302"><ele>224.0</ele><time>2026-05-01T18:03:14Z</time></trkpt><trkpt lat="45.47670002966365" lon="11.194644175021825"><ele>228.0</ele><time>2026-05-01T18:03:15Z</time></trkpt><trkpt lat="45.4765780248931" lon="11.19466161937706"><ele>232.0</ele><time>2026-05-01T18:03:16Z</time></trkpt><trkpt lat="45.47642866808565" lon="11.194674696749589"><ele>236.0</ele><time>2026-05-01T18:03:17Z</time></trkpt><trkpt lat="45.476257116548325" lon="11.194695084620555"><ele>237.0</ele><time>2026-05-01T18:03:18Z</time></trkpt><trkpt lat="45.476089786363026" lon="11.194750304429514"><ele>238.0</ele><time>2026-05-01T18:03:19Z</time></trkpt><trkpt lat="45.47594932805163" lon="11.194750152289274"><ele>239.0</ele><time>2026-05-01T18:03:20Z</time></trkpt><trkpt lat="45.47580709883459" lon="11.194744863572225"><ele>239.0</ele><time>2026-05-01T18:03:21Z</time></trkpt><trkpt lat="45.475665656640835" lon="11.194719020832883"><ele>239.0</ele><time>2026-05-01T18:03:22Z</time></trkpt><trkpt lat="45.475533722794474" lon="11.194679235487568"><ele>239.0</ele><time>2026-05-01T18:03:23Z</time></trkpt><trkpt lat="45.475404499115726" lon="11.194611097508872"><ele>239.0</ele><time>2026-05-01T18:03:24Z</time></trkpt><trkpt lat="45.47527901108048" lon="11.194496708706929"><ele>239.0</ele><time>2026-05-01T18:03:25Z</time></trkpt><trkpt lat="45.475142124516054" lon="11.194417009719059"><ele>239.0</ele><time>2026-05-01T18:03:26Z</time></trkpt><trkpt lat="45.47501637087436" lon="11.194351156249862"><ele>239.0</ele><time>2026-05-01T18:03:27Z</time></trkpt><trkpt lat="45.474882015172355" lon="11.194300707382766"><ele>239.0</ele><time>2026-05-01T18:03:28Z</time></trkpt><trkpt lat="45.47474161981406" lon="11.194235672164714"><ele>239.0</ele><time>2026-05-01T18:03:29Z</time></trkpt><trkpt lat="45.47461729011167" lon="11.194162848414262"><ele>239.0</ele><time>2026-05-01T18:03:30Z</time></trkpt><trkpt lat="45.474488280465636" lon="11.194115565837807"><ele>239.0</ele><time>2026-05-01T18:03:31Z</time></trkpt><trkpt lat="45.47435951517844" lon="11.194061669581103"><ele>239.0</ele><time>2026-05-01T18:03:32Z</time></trkpt><trkpt lat="45.47423355999811" lon="11.193999985685027"><ele>239.75</ele><time>2026-05-01T18:03:33Z</time></trkpt><trkpt lat="45.47410220794649" lon="11.193936744299261"><ele>240.5</ele><time>2026-05-01T18:03:34Z</time></trkpt><trkpt lat="45.47396855588567" lon="11.193882538117233"><ele>241.25</ele><time>2026-05-01T18:03:35Z</time></trkpt><trkpt lat="45.47382863080171" lon="11.193843219645558"><ele>242.0</ele><time>2026-05-01T18:03:36Z</time></trkpt><trkpt lat="45.47369236476775" lon="11.19381247957397"><ele>242.0</ele><time>2026-05-01T18:03:37Z</time></trkpt><trkpt lat="45.47357029442997" lon="11.193799266470885"><ele>242.0</ele><time>2026-05-01T18:03:38Z</time></trkpt><trkpt lat="45.47344344098999" lon="11.193796129634244"><ele>242.0</ele><time>2026-05-01T18:03:39Z</time></trkpt><trkpt lat="45.47330844451476" lon="11.193755591767406"><ele>242.0</ele><time>2026-05-01T18:03:40Z</time></trkpt><trkpt lat="45.473173654907036" lon="11.193747469935433"><ele>242.0</ele><time>2026-05-01T18:03:41Z</time></trkpt><trkpt lat="45.473053845931396" lon="11.193740250776623"><ele>242.0</ele><time>2026-05-01T18:03:42Z</time></trkpt><trkpt lat="45.472931888006556" lon="11.193752585034943"><ele>242.0</ele><time>2026-05-01T18:03:43Z</time></trkpt><trkpt lat="45.47281260988848" lon="11.193739377417998"><ele>242.0</ele><time>2026-05-01T18:03:44Z</time></trkpt><trkpt lat="45.47268957444705" lon="11.193710826518469"><ele>245.0</ele><time>2026-05-01T18:03:45Z</time></trkpt><trkpt lat="45.4725505201104" lon="11.193689012809966"><ele>248.0</ele><time>2026-05-01T18:03:46Z</time></trkpt><trkpt lat="45.47240050375217" lon="11.193642946134542"><ele>251.0</ele><time>2026-05-01T18:03:47Z</time></trkpt><trkpt lat="45.47226400063641" lon="11.193603071737956"><ele>254.0</ele><time>2026-05-01T18:03:48Z</time></trkpt><trkpt lat="45.47212497859072" lon="11.193604786336357"><ele>257.5</ele><time>2026-05-01T18:03:49Z</time></trkpt><trkpt lat="45.471986129491576" lon="11.193608226569745"><ele>261.0</ele><time>2026-05-01T18:03:50Z</time></trkpt><trkpt lat="45.471853690425235" lon="11.193614626029325"><ele>264.5</ele><time>2026-05-01T18:03:51Z</time></trkpt><trkpt lat="45.47172924487104" lon="11.193595002745278"><ele>268.0</ele><time>2026-05-01T18:03:52Z</time></trkpt><trkpt lat="45.47161947893396" lon="11.193593896419848"><ele>268.0</ele><time>2026-05-01T18:03:53Z</time></trkpt><trkpt lat="45.47152604468229" lon="11.193597757861731"><ele>268.0</ele><time>2026-05-01T18:03:54Z</time></trkpt><trkpt lat="45.47145444592515" lon="11.193642344488355"><ele>268.0</ele><time>2026-05-01T18:03:55Z</time></trkpt><trkpt lat="45.47138705934654" lon="11.19365493111352"><ele>268.0</ele><time>2026-05-01T18:03:56Z</time></trkpt><trkpt lat="45.47131863836952" lon="11.193697897012832"><ele>268.0</ele><time>2026-05-01T18:03:57Z</time></trkpt><trkpt lat="45.47125423592035" lon="11.193739288586466"><ele>268.0</ele><time>2026-05-01T18:03:58Z</time></trkpt><trkpt lat="45.47120423405658" lon="11.19379690483644"><ele>268.0</ele><time>2026-05-01T18:03:59Z</time></trkpt><trkpt lat="45.47113971654625" lon="11.19382804597712"><ele>270.0</ele><time>2026-05-01T18:04:00Z</time></trkpt><trkpt lat="45.47107311891031" lon="11.193873803437365"><ele>272.0</ele><time>2026-05-01T18:04:01Z</time></trkpt><trkpt lat="45.471001284975124" lon="11.19390760398839"><ele>274.0</ele><time>2026-05-01T18:04:02Z</time></trkpt><trkpt lat="45.470921998512246" lon="11.193950783507571"><ele>276.0</ele><time>2026-05-01T18:04:03Z</time></trkpt><trkpt lat="45.47082418864384" lon="11.194001053698596"><ele>278.0</ele><time>2026-05-01T18:04:04Z</time></trkpt><trkpt lat="45.47071474250597" lon="11.19405046757367"><ele>278.0</ele><time>2026-05-01T18:04:05Z</time></trkpt><trkpt lat="45.470619381121864" lon="11.194100459973665"><ele>278.0</ele><time>2026-05-01T18:04:06Z</time></trkpt><trkpt lat="45.470525584723454" lon="11.194172969188164"><ele>278.0</ele><time>2026-05-01T18:04:07Z</time></trkpt><trkpt lat="45.470426948026535" lon="11.194282081737391"><ele>278.0</ele><time>2026-05-01T18:04:08Z</time></trkpt><trkpt lat="45.47031656237114" lon="11.194392352757523"><ele>283.0</ele><time>2026-05-01T18:04:09Z</time></trkpt><trkpt lat="45.47019681771906" lon="11.194503373225082"><ele>288.0</ele><time>2026-05-01T18:04:10Z</time></trkpt><trkpt lat="45.47007808389084" lon="11.194603606781856"><ele>293.0</ele><time>2026-05-01T18:04:11Z</time></trkpt><trkpt lat="45.469967296860894" lon="11.194664012018034"><ele>298.0</ele><time>2026-05-01T18:04:12Z</time></trkpt><trkpt lat="45.46988812939154" lon="11.194748006590139"><ele>298.0</ele><time>2026-05-01T18:04:13Z</time></trkpt><trkpt lat="45.46979805562975" lon="11.194813299766158"><ele>298.0</ele><time>2026-05-01T18:04:14Z</time></trkpt><trkpt lat="45.469708069663135" lon="11.19488010043927"><ele>298.0</ele><time>2026-05-01T18:04:15Z</time></trkpt><trkpt lat="45.46962099852911" lon="11.194929017367834"><ele>298.0</ele><time>2026-05-01T18:04:16Z</time></trkpt><trkpt lat="45.46954178957986" lon="11.19496095551103"><ele>298.0</ele><time>2026-05-01T18:04:17Z</time></trkpt><trkpt lat="45.469455720589536" lon="11.194979161530481"><ele>297.2</ele><time>2026-05-01T18:04:18Z</time></trkpt><trkpt lat="45.46935494168277" lon="11.194973897328937"><ele>296.4</ele><time>2026-05-01T18:04:19Z</time></trkpt><trkpt lat="45.469250190606175" lon="11.19496261075911"><ele>295.59999999999997</ele><time>2026-05-01T18:04:20Z</time></trkpt><trkpt lat="45.4691584795362" lon="11.194930541652521"><ele>294.8</ele><time>2026-05-01T18:04:21Z</time></trkpt><trkpt lat="45.46906398730575" lon="11.194886277474609"><ele>294.0</ele><time>2026-05-01T18:04:22Z</time></trkpt><trkpt lat="45.468952705549356" lon="11.194832324446903"><ele>292.6666666666667</ele><time>2026-05-01T18:04:23Z</time></trkpt><trkpt lat="45.46886909162829" lon="11.194790144779025"><ele>291.3333333333333</ele><time>2026-05-01T18:04:24Z</time></trkpt><trkpt lat="45.468790356930235" lon="11.194759993654062"><ele>290.0</ele><time>2026-05-01T18:04:25Z</time></trkpt><trkpt lat="45.46871911792671" lon="11.194723104183756"><ele>288.66666666666663</ele><time>2026-05-01T18:04:26Z</time></trkpt><trkpt lat="45.468646596606" lon="11.194688669243751"><ele>287.3333333333333</ele><time>2026-05-01T18:04:27Z</time></trkpt><trkpt lat="45.46857179316253" lon="11.194748283705804"><ele>286.0</ele><time>2026-05-01T18:04:29Z</time></trkpt><trkpt lat="45.468496726027105" lon="11.194803105339624"><ele>286.0</ele><time>2026-05-01T18:04:31Z</time></trkpt><trkpt lat="45.46844260025854" lon="11.194852783775488"><ele>286.0</ele><time>2026-05-01T18:04:32Z</time></trkpt><trkpt lat="45.46836307624916" lon="11.194925773337207"><ele>286.0</ele><time>2026-05-01T18:04:33Z</time></trkpt><trkpt lat="45.46826861635938" lon="11.195023459093763"><ele>286.0</ele><time>2026-05-01T18:04:34Z</time></trkpt><trkpt lat="45.46813607833739" lon="11.195093259441053"><ele>286.0</ele><time>2026-05-01T18:04:35Z</time></trkpt><trkpt lat="45.468007074897734" lon="11.195193995787923"><ele>283.0</ele><time>2026-05-01T18:04:36Z</time></trkpt><trkpt lat="45.46788960344642" lon="11.195268883919997"><ele>280.0</ele><time>2026-05-01T18:04:37Z</time></trkpt><trkpt lat="45.46778885814127" lon="11.195337534922867"><ele>277.0</ele><time>2026-05-01T18:04:38Z</time></trkpt><trkpt lat="45.46769581595445" lon="11.195414929716428"><ele>274.0</ele><time>2026-05-01T18:04:39Z</time></trkpt><trkpt lat="45.46760275397663" lon="11.19551656070292"><ele>274.0</ele><time>2026-05-01T18:04:40Z</time></trkpt><trkpt lat="45.467521130552704" lon="11.195621699417593"><ele>274.0</ele><time>2026-05-01T18:04:41Z</time></trkpt><trkpt lat="45.467457924242176" lon="11.19570778413658"><ele>274.0</ele><time>2026-05-01T18:04:42Z</time></trkpt><trkpt lat="45.46739272904082" lon="11.195751126503147"><ele>274.0</ele><time>2026-05-01T18:04:43Z</time></trkpt><trkpt lat="45.467330635912305" lon="11.195819161085444"><ele>274.0</ele><time>2026-05-01T18:04:44Z</time></trkpt><trkpt lat="45.46726105104903" lon="11.195912933487136"><ele>274.0</ele><time>2026-05-01T18:04:45Z</time></trkpt><trkpt lat="45.4671932711817" lon="11.195974364959838"><ele>273.66666666666663</ele><time>2026-05-01T18:04:46Z</time></trkpt><trkpt lat="45.467140297619856" lon="11.196063902422178"><ele>273.3333333333333</ele><time>2026-05-01T18:04:47Z</time></trkpt><trkpt lat="45.467078947259864" lon="11.196111640685764"><ele>273.0</ele><time>2026-05-01T18:04:48Z</time></trkpt><trkpt lat="45.46701027166664" lon="11.19613589881728"><ele>272.6666666666667</ele><time>2026-05-01T18:04:49Z</time></trkpt><trkpt lat="45.46691244031392" lon="11.196165592301472"><ele>272.33333333333337</ele><time>2026-05-01T18:04:50Z</time></trkpt><trkpt lat="45.466793620487465" lon="11.196197313890483"><ele>272.0</ele><time>2026-05-01T18:04:51Z</time></trkpt><trkpt lat="45.466674199322966" lon="11.196233861707883"><ele>272.0</ele><time>2026-05-01T18:04:52Z</time></trkpt><trkpt lat="45.46655889656177" lon="11.19626768546723"><ele>272.0</ele><time>2026-05-01T18:04:53Z</time></trkpt><trkpt lat="45.46645143397016" lon="11.196297918667064"><ele>272.0</ele><time>2026-05-01T18:04:54Z</time></trkpt><trkpt lat="45.466352545551935" lon="11.196335436593188"><ele>272.0</ele><time>2026-05-01T18:04:55Z</time></trkpt><trkpt lat="45.466247598977716" lon="11.196362937571308"><ele>272.0</ele><time>2026-05-01T18:04:56Z</time></trkpt><trkpt lat="45.46615505297312" lon="11.196386099274804"><ele>271.1428571428571</ele><time>2026-05-01T18:04:57Z</time></trkpt><trkpt lat="45.466076854960825" lon="11.196408209191446"><ele>270.2857142857143</ele><time>2026-05-01T18:04:58Z</time></trkpt><trkpt lat="45.466008853304864" lon="11.196427911353215"><ele>269.42857142857144</ele><time>2026-05-01T18:04:59Z</time></trkpt><trkpt lat="45.46594247976317" lon="11.196454216341152"><ele>268.57142857142856</ele><time>2026-05-01T18:05:00Z</time></trkpt><trkpt lat="45.46589016195129" lon="11.196525137369399"><ele>267.7142857142857</ele><time>2026-05-01T18:05:01Z</time></trkpt><trkpt lat="45.46585556142674" lon="11.196629784274677"><ele>266.85714285714283</ele><time>2026-05-01T18:05:02Z</time></trkpt><trkpt lat="45.4658442340622" lon="11.196736805526278"><ele>266.0</ele><time>2026-05-01T18:05:03Z</time></trkpt><trkpt lat="45.4658364921069" lon="11.196830701524416"><ele>266.0</ele><time>2026-05-01T18:05:04Z</time></trkpt><trkpt lat="45.46578140329457" lon="11.19688890053806"><ele>266.0</ele><time>2026-05-01T18:05:05Z</time></trkpt><trkpt lat="45.46571230206081" lon="11.196913621336087"><ele>266.0</ele><time>2026-05-01T18:05:06Z</time></trkpt><trkpt lat="45.46560310597764" lon="11.196968810258886"><ele>266.0</ele><time>2026-05-01T18:05:07Z</time></trkpt><trkpt lat="45.465461631208434" lon="11.19702099111429"><ele>266.0</ele><time>2026-05-01T18:05:08Z</time></trkpt><trkpt lat="45.465329591632226" lon="11.197120718568058"><ele>263.25</ele><time>2026-05-01T18:05:09Z</time></trkpt><trkpt lat="45.465195421441855" lon="11.197200153156746"><ele>260.5</ele><time>2026-05-01T18:05:10Z</time></trkpt><trkpt lat="45.4650826610671" lon="11.197270863406402"><ele>257.75</ele><time>2026-05-01T18:05:11Z</time></trkpt><trkpt lat="45.46498068664498" lon="11.19733759592577"><ele>255.0</ele><time>2026-05-01T18:05:12Z</time></trkpt><trkpt lat="45.46488610838927" lon="11.197388345238295"><ele>255.0</ele><time>2026-05-01T18:05:13Z</time></trkpt><trkpt lat="45.46478732223069" lon="11.197387974230185"><ele>255.0</ele><time>2026-05-01T18:05:14Z</time></trkpt><trkpt lat="45.4646845246537" lon="11.197409485339513"><ele>255.0</ele><time>2026-05-01T18:05:15Z</time></trkpt><trkpt lat="45.46458588528192" lon="11.197466722667306"><ele>255.0</ele><time>2026-05-01T18:05:16Z</time></trkpt><trkpt lat="45.464498749918135" lon="11.197510356152119"><ele>255.0</ele><time>2026-05-01T18:05:17Z</time></trkpt><trkpt lat="45.46437962051228" lon="11.197560964681976"><ele>255.0</ele><time>2026-05-01T18:05:18Z</time></trkpt><trkpt lat="45.46425265034094" lon="11.197628664808926"><ele>255.0</ele><time>2026-05-01T18:05:19Z</time></trkpt><trkpt lat="45.46414505544304" lon="11.197683423209241"><ele>255.0</ele><time>2026-05-01T18:05:20Z</time></trkpt><trkpt lat="45.46405696766416" lon="11.197746967821612"><ele>255.0</ele><time>2026-05-01T18:05:21Z</time></trkpt><trkpt lat="45.463971623102495" lon="11.197787440730743"><ele>255.0</ele><time>2026-05-01T18:05:22Z</time></trkpt><trkpt lat="45.463892572727005" lon="11.197820038259094"><ele>255.0</ele><time>2026-05-01T18:05:23Z</time></trkpt><trkpt lat="45.46379880984049" lon="11.197841431276153"><ele>255.0</ele><time>2026-05-01T18:05:24Z</time></trkpt><trkpt lat="45.46370109800446" lon="11.197830894089838"><ele>255.0</ele><time>2026-05-01T18:05:25Z</time></trkpt><trkpt lat="45.463590950291" lon="11.197822915602588"><ele>255.0</ele><time>2026-05-01T18:05:26Z</time></trkpt><trkpt lat="45.46347966084177" lon="11.197797278482945"><ele>255.0</ele><time>2026-05-01T18:05:27Z</time></trkpt><trkpt lat="45.46336707786805" lon="11.197778816557118"><ele>253.0</ele><time>2026-05-01T18:05:28Z</time></trkpt><trkpt lat="45.46325200362004" lon="11.197767420406125"><ele>251.0</ele><time>2026-05-01T18:05:29Z</time></trkpt><trkpt lat="45.46312855218064" lon="11.197792641676918"><ele>249.0</ele><time>2026-05-01T18:05:30Z</time></trkpt><trkpt lat="45.46297226260639" lon="11.197827825643849"><ele>247.0</ele><time>2026-05-01T18:05:31Z</time></trkpt><trkpt lat="45.46281322803079" lon="11.197842487229769"><ele>245.75</ele><time>2026-05-01T18:05:32Z</time></trkpt><trkpt lat="45.46268728770592" lon="11.197818963743813"><ele>244.5</ele><time>2026-05-01T18:05:33Z</time></trkpt><trkpt lat="45.46257201637358" lon="11.197766813542247"><ele>243.25</ele><time>2026-05-01T18:05:34Z</time></trkpt><trkpt lat="45.462470298077726" lon="11.19769870351036"><ele>242.0</ele><time>2026-05-01T18:05:35Z</time></trkpt><trkpt lat="45.46237523236973" lon="11.197657411707718"><ele>242.00000000000003</ele><time>2026-05-01T18:05:36Z</time></trkpt><trkpt lat="45.4622850252754" lon="11.197638313597823"><ele>242.0</ele><time>2026-05-01T18:05:37Z</time></trkpt><trkpt lat="45.46219684620989" lon="11.197627700331587"><ele>242.0</ele><time>2026-05-01T18:05:38Z</time></trkpt><trkpt lat="45.46212146477827" lon="11.197577089253388"><ele>242.0</ele><time>2026-05-01T18:05:39Z</time></trkpt><trkpt lat="45.462052376207836" lon="11.197566439348513"><ele>242.00000000000003</ele><time>2026-05-01T18:05:40Z</time></trkpt><trkpt lat="45.46199266163306" lon="11.197506585347668"><ele>242.0</ele><time>2026-05-01T18:05:42Z</time></trkpt><trkpt lat="45.461890238215204" lon="11.197563247055067"><ele>242.39999999999998</ele><time>2026-05-01T18:05:45Z</time></trkpt><trkpt lat="45.46183339502753" lon="11.197650385376766"><ele>242.79999999999998</ele><time>2026-05-01T18:05:46Z</time></trkpt><trkpt lat="45.46176785614542" lon="11.197674653654909"><ele>243.2</ele><time>2026-05-01T18:05:47Z</time></trkpt><trkpt lat="45.46169189826548" lon="11.197662292477952"><ele>243.6</ele><time>2026-05-01T18:05:48Z</time></trkpt><trkpt lat="45.46158888830066" lon="11.197653065583227"><ele>244.0</ele><time>2026-05-01T18:05:49Z</time></trkpt><trkpt lat="45.46146954131453" lon="11.197650140972334"><ele>244.0</ele><time>2026-05-01T18:05:50Z</time></trkpt><trkpt lat="45.46135447301191" lon="11.197637035145158"><ele>244.0</ele><time>2026-05-01T18:05:51Z</time></trkpt><trkpt lat="45.461247935677115" lon="11.197615437965283"><ele>244.0</ele><time>2026-05-01T18:05:52Z</time></trkpt><trkpt lat="45.46113170229789" lon="11.197584385714425"><ele>244.0</ele><time>2026-05-01T18:05:53Z</time></trkpt><trkpt lat="45.461012771221895" lon="11.197563639924114"><ele>243.2</ele><time>2026-05-01T18:05:54Z</time></trkpt><trkpt lat="45.46092081412997" lon="11.19753012363443"><ele>242.39999999999998</ele><time>2026-05-01T18:05:55Z</time></trkpt><trkpt lat="45.460819235628634" lon="11.197495893960513"><ele>241.6</ele><time>2026-05-01T18:05:56Z</time></trkpt><trkpt lat="45.46073104817756" lon="11.197456533941104"><ele>240.8</ele><time>2026-05-01T18:05:57Z</time></trkpt><trkpt lat="45.46063174658782" lon="11.19740094546369"><ele>240.0</ele><time>2026-05-01T18:05:58Z</time></trkpt><trkpt lat="45.460519603817886" lon="11.197349427323678"><ele>238.75</ele><time>2026-05-01T18:05:59Z</time></trkpt><trkpt lat="45.46038811883199" lon="11.197311447390499"><ele>237.5</ele><time>2026-05-01T18:06:00Z</time></trkpt><trkpt lat="45.46026568197488" lon="11.19725200571114"><ele>236.25</ele><time>2026-05-01T18:06:01Z</time></trkpt><trkpt lat="45.46013942481137" lon="11.197194564365654"><ele>235.0</ele><time>2026-05-01T18:06:02Z</time></trkpt><trkpt lat="45.46000110818467" lon="11.19715825353259"><ele>235.0</ele><time>2026-05-01T18:06:03Z</time></trkpt><trkpt lat="45.45985891039115" lon="11.197108857356739"><ele>235.0</ele><time>2026-05-01T18:06:04Z</time></trkpt><trkpt lat="45.45970670139504" lon="11.197092193268153"><ele>235.0</ele><time>2026-05-01T18:06:05Z</time></trkpt><trkpt lat="45.45954352329636" lon="11.197089075947254"><ele>234.5</ele><time>2026-05-01T18:06:06Z</time></trkpt><trkpt lat="45.45939989802169" lon="11.19709641833116"><ele>234.0</ele><time>2026-05-01T18:06:07Z</time></trkpt><trkpt lat="45.459261392725004" lon="11.197122437144754"><ele>233.5</ele><time>2026-05-01T18:06:08Z</time></trkpt><trkpt lat="45.45912104662296" lon="11.197106288738876"><ele>233.0</ele><time>2026-05-01T18:06:09Z</time></trkpt><trkpt lat="45.458974999402734" lon="11.19707682027119"><ele>233.0</ele><time>2026-05-01T18:06:10Z</time></trkpt><trkpt lat="45.45882659076184" lon="11.197040341640548"><ele>233.0</ele><time>2026-05-01T18:06:11Z</time></trkpt><trkpt lat="45.45867319236015" lon="11.1970054762174"><ele>233.0</ele><time>2026-05-01T18:06:12Z</time></trkpt><trkpt lat="45.45852518908417" lon="11.196962290982798"><ele>232.75</ele><time>2026-05-01T18:06:13Z</time></trkpt><trkpt lat="45.4583834124278" lon="11.196923988157437"><ele>232.5</ele><time>2026-05-01T18:06:14Z</time></trkpt><trkpt lat="45.45823869764933" lon="11.196883380243062"><ele>232.25</ele><time>2026-05-01T18:06:15Z</time></trkpt><trkpt lat="45.45809456785343" lon="11.196827901108392"><ele>232.0</ele><time>2026-05-01T18:06:16Z</time></trkpt><trkpt lat="45.45794479652294" lon="11.196785173127498"><ele>231.75</ele><time>2026-05-01T18:06:17Z</time></trkpt><trkpt lat="45.45780440681518" lon="11.196749676726103"><ele>231.5</ele><time>2026-05-01T18:06:18Z</time></trkpt><trkpt lat="45.45767503858972" lon="11.196704903818356"><ele>231.25</ele><time>2026-05-01T18:06:19Z</time></trkpt><trkpt lat="45.457543324583966" lon="11.196636782425056"><ele>231.0</ele><time>2026-05-01T18:06:20Z</time></trkpt><trkpt lat="45.4574309742021" lon="11.196570568652783"><ele>231.0</ele><time>2026-05-01T18:06:21Z</time></trkpt><trkpt lat="45.45729367361721" lon="11.196519804184772"><ele>231.0</ele><time>2026-05-01T18:06:22Z</time></trkpt><trkpt lat="45.457175487246595" lon="11.196423401489643"><ele>231.0</ele><time>2026-05-01T18:06:23Z</time></trkpt><trkpt lat="45.45703326503074" lon="11.196346789361668"><ele>231.0</ele><time>2026-05-01T18:06:24Z</time></trkpt><trkpt lat="45.4568906589194" lon="11.196302860962156"><ele>231.5</ele><time>2026-05-01T18:06:25Z</time></trkpt><trkpt lat="45.456760894485605" lon="11.196240640567547"><ele>232.0</ele><time>2026-05-01T18:06:26Z</time></trkpt><trkpt lat="45.45663026954723" lon="11.196162583056985"><ele>232.5</ele><time>2026-05-01T18:06:27Z</time></trkpt><trkpt lat="45.456489231748954" lon="11.19609846218322"><ele>233.0</ele><time>2026-05-01T18:06:28Z</time></trkpt><trkpt lat="45.45634125695592" lon="11.196039651766664"><ele>232.0</ele><time>2026-05-01T18:06:29Z</time></trkpt><trkpt lat="45.456185711251806" lon="11.195982452306014"><ele>231.0</ele><time>2026-05-01T18:06:30Z</time></trkpt><trkpt lat="45.45603145537462" lon="11.195936443845625"><ele>230.0</ele><time>2026-05-01T18:06:31Z</time></trkpt><trkpt lat="45.45585260658109" lon="11.195875452417242"><ele>230.0</ele><time>2026-05-01T18:06:32Z</time></trkpt><trkpt lat="45.45567011540502" lon="11.195808820899806"><ele>230.0</ele><time>2026-05-01T18:06:33Z</time></trkpt><trkpt lat="45.455501295644936" lon="11.195755185412889"><ele>230.0</ele><time>2026-05-01T18:06:34Z</time></trkpt><trkpt lat="45.45533917092449" lon="11.19570193466104"><ele>229.33333333333334</ele><time>2026-05-01T18:06:35Z</time></trkpt><trkpt lat="45.455177987747696" lon="11.195650041807058"><ele>228.66666666666669</ele><time>2026-05-01T18:06:36Z</time></trkpt><trkpt lat="45.45502205212053" lon="11.195600671602369"><ele>228.0</ele><time>2026-05-01T18:06:37Z</time></trkpt><trkpt lat="45.454868937445895" lon="11.195553385683"><ele>228.0</ele><time>2026-05-01T18:06:38Z</time></trkpt><trkpt lat="45.45471957832395" lon="11.195492616345742"><ele>228.0</ele><time>2026-05-01T18:06:39Z</time></trkpt><trkpt lat="45.454565493393396" lon="11.195503304247541"><ele>228.0</ele><time>2026-05-01T18:06:40Z</time></trkpt><trkpt lat="45.45441150978779" lon="11.195500897635453"><ele>227.66666666666669</ele><time>2026-05-01T18:06:41Z</time></trkpt><trkpt lat="45.4542583962619" lon="11.19544297358514"><ele>227.33333333333334</ele><time>2026-05-01T18:06:42Z</time></trkpt><trkpt lat="45.4541052998883" lon="11.195404574800094"><ele>227.0</ele><time>2026-05-01T18:06:43Z</time></trkpt><trkpt lat="45.453947654265846" lon="11.195342946887225"><ele>226.66666666666669</ele><time>2026-05-01T18:06:44Z</time></trkpt><trkpt lat="45.45377450728276" lon="11.195313890825215"><ele>226.33333333333331</ele><time>2026-05-01T18:06:45Z</time></trkpt><trkpt lat="45.45361104685766" lon="11.195279144435602"><ele>226.0</ele><time>2026-05-01T18:06:46Z</time></trkpt><trkpt lat="45.4534613592376" lon="11.19526938403808"><ele>226.0</ele><time>2026-05-01T18:06:47Z</time></trkpt><trkpt lat="45.45332542075188" lon="11.195265349657369"><ele>226.0</ele><time>2026-05-01T18:06:48Z</time></trkpt><trkpt lat="45.45317658156298" lon="11.195269174064682"><ele>226.0</ele><time>2026-05-01T18:06:49Z</time></trkpt><trkpt lat="45.453034220798976" lon="11.195282205639502"><ele>226.0</ele><time>2026-05-01T18:06:50Z</time></trkpt><trkpt lat="45.45288189797447" lon="11.195306128624637"><ele>226.0</ele><time>2026-05-01T18:06:51Z</time></trkpt><trkpt lat="45.4527328365606" lon="11.195338239066563"><ele>226.0</ele><time>2026-05-01T18:06:52Z</time></trkpt><trkpt lat="45.452580076756426" lon="11.19538411340469"><ele>226.0</ele><time>2026-05-01T18:06:53Z</time></trkpt><trkpt lat="45.452435528155874" lon="11.195432276363139"><ele>226.0</ele><time>2026-05-01T18:06:54Z</time></trkpt><trkpt lat="45.452275156962564" lon="11.195474967371712"><ele>226.0</ele><time>2026-05-01T18:06:55Z</time></trkpt><trkpt lat="45.45212688159535" lon="11.195518413263965"><ele>226.0</ele><time>2026-05-01T18:06:56Z</time></trkpt><trkpt lat="45.451993959676315" lon="11.195564137296197"><ele>227.0</ele><time>2026-05-01T18:06:57Z</time></trkpt><trkpt lat="45.451865245836366" lon="11.195597628442032"><ele>228.0</ele><time>2026-05-01T18:06:58Z</time></trkpt><trkpt lat="45.4517512094772" lon="11.195612785762595"><ele>229.0</ele><time>2026-05-01T18:06:59Z</time></trkpt><trkpt lat="45.45164636476736" lon="11.195617747476186"><ele>230.0</ele><time>2026-05-01T18:07:00Z</time></trkpt><trkpt lat="45.45151048004495" lon="11.195615992329603"><ele>230.0</ele><time>2026-05-01T18:07:01Z</time></trkpt><trkpt lat="45.45137643233305" lon="11.195614704120201"><ele>230.0</ele><time>2026-05-01T18:07:02Z</time></trkpt><trkpt lat="45.45122704093676" lon="11.195613408106073"><ele>230.0</ele><time>2026-05-01T18:07:03Z</time></trkpt><trkpt lat="45.45132189092959" lon="11.195614179972283"><ele>230.0</ele><time>2026-05-01T18:07:04Z</time></trkpt><trkpt lat="45.45122621519317" lon="11.19561340810696"><ele>229.66666666666669</ele><time>2026-05-01T18:07:05Z</time></trkpt><trkpt lat="45.451097525962425" lon="11.195613408107906"><ele>229.33333333333331</ele><time>2026-05-01T18:07:06Z</time></trkpt><trkpt lat="45.45097171362697" lon="11.195616139754497"><ele>229.0</ele><time>2026-05-01T18:07:07Z</time></trkpt><trkpt lat="45.45072972803313" lon="11.195668041862453"><ele>229.2</ele><time>2026-05-01T18:07:09Z</time></trkpt><trkpt lat="45.4505963584624" lon="11.195678381298436"><ele>229.39999999999998</ele><time>2026-05-01T18:07:10Z</time></trkpt><trkpt lat="45.45049147949913" lon="11.195688550441673"><ele>229.6</ele><time>2026-05-01T18:07:11Z</time></trkpt><trkpt lat="45.450398186365916" lon="11.195691850157676"><ele>229.8</ele><time>2026-05-01T18:07:12Z</time></trkpt><trkpt lat="45.45031722904746" lon="11.19570883072796"><ele>230.0</ele><time>2026-05-01T18:07:13Z</time></trkpt><trkpt lat="45.45021186050293" lon="11.195750780143994"><ele>230.0</ele><time>2026-05-01T18:07:14Z</time></trkpt><trkpt lat="45.45005964343691" lon="11.195793650570465"><ele>230.0</ele><time>2026-05-01T18:07:15Z</time></trkpt><trkpt lat="45.44990876776965" lon="11.195865379407802"><ele>230.0</ele><time>2026-05-01T18:07:16Z</time></trkpt><trkpt lat="45.44978585543281" lon="11.195946898056775"><ele>230.0</ele><time>2026-05-01T18:07:17Z</time></trkpt><trkpt lat="45.44966280832909" lon="11.196002805314588"><ele>230.0</ele><time>2026-05-01T18:07:18Z</time></trkpt><trkpt lat="45.449553718294894" lon="11.196025694722772"><ele>230.0</ele><time>2026-05-01T18:07:19Z</time></trkpt><trkpt lat="45.4494471829759" lon="11.196090248658772"><ele>230.0</ele><time>2026-05-01T18:07:20Z</time></trkpt><trkpt lat="45.44932030129106" lon="11.196121667379623"><ele>228.75</ele><time>2026-05-01T18:07:21Z</time></trkpt><trkpt lat="45.449194650503614" lon="11.196132112777981"><ele>227.5</ele><time>2026-05-01T18:07:22Z</time></trkpt><trkpt lat="45.44906215931916" lon="11.196132744210503"><ele>226.25</ele><time>2026-05-01T18:07:23Z</time></trkpt><trkpt lat="45.44893447763799" lon="11.196108016522174"><ele>225.0</ele><time>2026-05-01T18:07:24Z</time></trkpt><trkpt lat="45.448821011383764" lon="11.196078146744542"><ele>223.0</ele><time>2026-05-01T18:07:25Z</time></trkpt><trkpt lat="45.448648789138915" lon="11.196132514355742"><ele>221.0</ele><time>2026-05-01T18:07:26Z</time></trkpt><trkpt lat="45.448491881765484" lon="11.19614948370343"><ele>219.0</ele><time>2026-05-01T18:07:27Z</time></trkpt><trkpt lat="45.44833044377895" lon="11.196132753003912"><ele>219.0</ele><time>2026-05-01T18:07:28Z</time></trkpt><trkpt lat="45.44817730404674" lon="11.196150344533182"><ele>219.0</ele><time>2026-05-01T18:07:29Z</time></trkpt><trkpt lat="45.4480390667465" lon="11.196152244013698"><ele>219.0</ele><time>2026-05-01T18:07:30Z</time></trkpt><trkpt lat="45.44790909413586" lon="11.196157565261489"><ele>219.0</ele><time>2026-05-01T18:07:31Z</time></trkpt><trkpt lat="45.4477666659468" lon="11.196151534757732"><ele>218.79999999999998</ele><time>2026-05-01T18:07:32Z</time></trkpt><trkpt lat="45.44763928164716" lon="11.196156251977927"><ele>218.59999999999997</ele><time>2026-05-01T18:07:33Z</time></trkpt><trkpt lat="45.44753957594664" lon="11.196164626643384"><ele>218.4</ele><time>2026-05-01T18:07:34Z</time></trkpt><trkpt lat="45.44745548895749" lon="11.196203603871805"><ele>218.2</ele><time>2026-05-01T18:07:35Z</time></trkpt><trkpt lat="45.44735990718261" lon="11.1962631386615"><ele>218.0</ele><time>2026-05-01T18:07:36Z</time></trkpt><trkpt lat="45.44725258085846" lon="11.196354237003018"><ele>218.0</ele><time>2026-05-01T18:07:37Z</time></trkpt><trkpt lat="45.447131853257346" lon="11.196454113883624"><ele>218.0</ele><time>2026-05-01T18:07:38Z</time></trkpt><trkpt lat="45.44700615076096" lon="11.19649085007238"><ele>218.0</ele><time>2026-05-01T18:07:39Z</time></trkpt><trkpt lat="45.446896149936016" lon="11.196523355693854"><ele>218.0</ele><time>2026-05-01T18:07:40Z</time></trkpt><trkpt lat="45.446780889196944" lon="11.19654826348018"><ele>218.25</ele><time>2026-05-01T18:07:41Z</time></trkpt><trkpt lat="45.446659848338896" lon="11.196556321717427"><ele>218.5</ele><time>2026-05-01T18:07:42Z</time></trkpt><trkpt lat="45.446540573490566" lon="11.196548742412325"><ele>218.75</ele><time>2026-05-01T18:07:43Z</time></trkpt><trkpt lat="45.44642027351257" lon="11.196525136867393"><ele>219.0</ele><time>2026-05-01T18:07:44Z</time></trkpt><trkpt lat="45.44630440928224" lon="11.196483373933347"><ele>218.39999999999998</ele><time>2026-05-01T18:07:45Z</time></trkpt><trkpt lat="45.44618286429811" lon="11.196422543279096"><ele>217.79999999999998</ele><time>2026-05-01T18:07:46Z</time></trkpt><trkpt lat="45.446064652838075" lon="11.19635597642466"><ele>217.20000000000002</ele><time>2026-05-01T18:07:47Z</time></trkpt><trkpt lat="45.445966798667044" lon="11.19631394462087"><ele>216.60000000000002</ele><time>2026-05-01T18:07:48Z</time></trkpt><trkpt lat="45.44589099414289" lon="11.196262290910477"><ele>216.0</ele><time>2026-05-01T18:07:49Z</time></trkpt><trkpt lat="45.445808614223644" lon="11.1962363905626"><ele>216.0</ele><time>2026-05-01T18:07:50Z</time></trkpt><trkpt lat="45.445723417777806" lon="11.196233647678696"><ele>216.00000000000003</ele><time>2026-05-01T18:07:51Z</time></trkpt><trkpt lat="45.44562871102643" lon="11.196238647229519"><ele>216.00000000000003</ele><time>2026-05-01T18:07:52Z</time></trkpt><trkpt lat="45.44552979618359" lon="11.196237183606922"><ele>216.0</ele><time>2026-05-01T18:07:53Z</time></trkpt><trkpt lat="45.44542797914155" lon="11.19624805624924"><ele>216.0</ele><time>2026-05-01T18:07:54Z</time></trkpt><trkpt lat="45.44533235982082" lon="11.196268251555802"><ele>213.0</ele><time>2026-05-01T18:07:55Z</time></trkpt><trkpt lat="45.44523588823023" lon="11.196265594180797"><ele>210.00000000000003</ele><time>2026-05-01T18:07:56Z</time></trkpt><trkpt lat="45.44513941208946" lon="11.196293469914929"><ele>207.0</ele><time>2026-05-01T18:07:57Z</time></trkpt><trkpt lat="45.445042774309485" lon="11.196316123892268"><ele>204.0</ele><time>2026-05-01T18:07:58Z</time></trkpt><trkpt lat="45.444942027126245" lon="11.196321599750531"><ele>201.0</ele><time>2026-05-01T18:07:59Z</time></trkpt><trkpt lat="45.44485356429633" lon="11.196315688893536"><ele>201.0</ele><time>2026-05-01T18:08:00Z</time></trkpt><trkpt lat="45.444766801417636" lon="11.196315694251352"><ele>201.0</ele><time>2026-05-01T18:08:01Z</time></trkpt><trkpt lat="45.4446831251272" lon="11.196346912133734"><ele>201.0</ele><time>2026-05-01T18:08:02Z</time></trkpt><trkpt lat="45.44460227167566" lon="11.196372106687397"><ele>201.0</ele><time>2026-05-01T18:08:03Z</time></trkpt><trkpt lat="45.44450878142276" lon="11.196401238926263"><ele>201.0</ele><time>2026-05-01T18:08:04Z</time></trkpt><trkpt lat="45.44440549508647" lon="11.196435379097382"><ele>200.60000000000002</ele><time>2026-05-01T18:08:05Z</time></trkpt><trkpt lat="45.44429664048849" lon="11.196480336500036"><ele>200.2</ele><time>2026-05-01T18:08:06Z</time></trkpt><trkpt lat="45.44421664238928" lon="11.196545004123877"><ele>199.8</ele><time>2026-05-01T18:08:07Z</time></trkpt><trkpt lat="45.44412118943487" lon="11.196573153682229"><ele>199.39999999999998</ele><time>2026-05-01T18:08:08Z</time></trkpt><trkpt lat="45.44403741204015" lon="11.196613038089579"><ele>199.0</ele><time>2026-05-01T18:08:09Z</time></trkpt><trkpt lat="45.44395243191499" lon="11.196660700848001"><ele>199.0</ele><time>2026-05-01T18:08:10Z</time></trkpt><trkpt lat="45.44388232658039" lon="11.196681512156434"><ele>199.0</ele><time>2026-05-01T18:08:11Z</time></trkpt><trkpt lat="45.44380942952665" lon="11.196722049541366"><ele>199.0</ele><time>2026-05-01T18:08:12Z</time></trkpt><trkpt lat="45.44373968292865" lon="11.196798334256416"><ele>199.0</ele><time>2026-05-01T18:08:13Z</time></trkpt><trkpt lat="45.44365618258076" lon="11.196887728760592"><ele>199.0</ele><time>2026-05-01T18:08:14Z</time></trkpt><trkpt lat="45.443580994567704" lon="11.197003791281308"><ele>195.6</ele><time>2026-05-01T18:08:15Z</time></trkpt><trkpt lat="45.443502752067666" lon="11.197100399196033"><ele>192.2</ele><time>2026-05-01T18:08:16Z</time></trkpt><trkpt lat="45.44342108432901" lon="11.197183999574783"><ele>188.79999999999998</ele><time>2026-05-01T18:08:17Z</time></trkpt><trkpt lat="45.44334060807257" lon="11.19725182964884"><ele>185.39999999999998</ele><time>2026-05-01T18:08:18Z</time></trkpt><trkpt lat="45.44326144411704" lon="11.19731244414601"><ele>182.0</ele><time>2026-05-01T18:08:19Z</time></trkpt><trkpt lat="45.44318800537626" lon="11.19737061421591"><ele>182.0</ele><time>2026-05-01T18:08:20Z</time></trkpt><trkpt lat="45.44308193989573" lon="11.197433414721392"><ele>182.0</ele><time>2026-05-01T18:08:22Z</time></trkpt><trkpt lat="45.44298989181852" lon="11.197411961448037"><ele>182.0</ele><time>2026-05-01T18:08:24Z</time></trkpt><trkpt lat="45.442887932972674" lon="11.197386164657091"><ele>182.0</ele><time>2026-05-01T18:08:26Z</time></trkpt><trkpt lat="45.44280122170728" lon="11.197360286154902"><ele>182.0</ele><time>2026-05-01T18:08:27Z</time></trkpt><trkpt lat="45.442711677509855" lon="11.197360269334283"><ele>181.75</ele><time>2026-05-01T18:08:29Z</time></trkpt><trkpt lat="45.44264465978947" lon="11.197379842570909"><ele>181.5</ele><time>2026-05-01T18:08:31Z</time></trkpt><trkpt lat="45.44264567672747" lon="11.197706492471742"><ele>181.25</ele><time>2026-05-01T18:08:34Z</time></trkpt><trkpt lat="45.44263685756168" lon="11.197606544375436"><ele>181.0</ele><time>2026-05-01T18:08:37Z</time></trkpt><trkpt lat="45.442624320770534" lon="11.197453005999149"><ele>181.0</ele><time>2026-05-01T18:08:41Z</time></trkpt><trkpt lat="45.44258565187626" lon="11.19737482053348"><ele>181.0</ele><time>2026-05-01T18:08:42Z</time></trkpt><trkpt lat="45.442551116973355" lon="11.197297585625686"><ele>181.0</ele><time>2026-05-01T18:08:43Z</time></trkpt><trkpt lat="45.44249784147742" lon="11.197172121512228"><ele>181.0</ele><time>2026-05-01T18:08:45Z</time></trkpt><trkpt lat="45.442440910529996" lon="11.19700590872248"><ele>181.0</ele><time>2026-05-01T18:08:47Z</time></trkpt><trkpt lat="45.442426639870945" lon="11.196879279655722"><ele>178.83333333333334</ele><time>2026-05-01T18:08:49Z</time></trkpt><trkpt lat="45.44246084721948" lon="11.196750387356618"><ele>176.66666666666669</ele><time>2026-05-01T18:08:52Z</time></trkpt><trkpt lat="45.44253042654736" lon="11.19669767998247"><ele>174.5</ele><time>2026-05-01T18:08:54Z</time></trkpt><trkpt lat="45.44259337579886" lon="11.196641866846278"><ele>172.33333333333334</ele><time>2026-05-01T18:08:56Z</time></trkpt><trkpt lat="45.442661393982945" lon="11.196575620706383"><ele>170.16666666666666</ele><time>2026-05-01T18:08:58Z</time></trkpt><trkpt lat="45.4427146946988" lon="11.196503116304527"><ele>168.0</ele><time>2026-05-01T18:09:00Z</time></trkpt><trkpt lat="45.442753071128834" lon="11.196430997822238"><ele>166.33333333333334</ele><time>2026-05-01T18:09:02Z</time></trkpt><trkpt lat="45.44279550316761" lon="11.196307329456097"><ele>164.66666666666666</ele><time>2026-05-01T18:09:05Z</time></trkpt><trkpt lat="45.44281849922513" lon="11.196215898609092"><ele>163.0</ele><time>2026-05-01T18:09:07Z</time></trkpt><trkpt lat="45.44283432017883" lon="11.196118020972023"><ele>161.33333333333331</ele><time>2026-05-01T18:09:09Z</time></trkpt><trkpt lat="45.442841001162584" lon="11.196006756949313"><ele>159.66666666666666</ele><time>2026-05-01T18:09:11Z</time></trkpt><trkpt lat="45.44284012220853" lon="11.195899951133551"><ele>158.0</ele><time>2026-05-01T18:09:13Z</time></trkpt><trkpt lat="45.442828362463274" lon="11.195769155608565"><ele>156.66666666666666</ele><time>2026-05-01T18:09:16Z</time></trkpt><trkpt lat="45.44280720999674" lon="11.195654959849328"><ele>155.33333333333331</ele><time>2026-05-01T18:09:18Z</time></trkpt><trkpt lat="45.4427777425316" lon="11.195530292444593"><ele>154.0</ele><time>2026-05-01T18:09:20Z</time></trkpt><trkpt lat="45.44273571805627" lon="11.195385569025028"><ele>152.66666666666666</ele><time>2026-05-01T18:09:22Z</time></trkpt><trkpt lat="45.44270970552942" lon="11.19530324911845"><ele>151.33333333333334</ele><time>2026-05-01T18:09:23Z</time></trkpt><trkpt lat="45.44267920523765" lon="11.195218435149865"><ele>150.0</ele><time>2026-05-01T18:09:24Z</time></trkpt><trkpt lat="45.44264554408765" lon="11.195128563938061"><ele>149.99999999999997</ele><time>2026-05-01T18:09:25Z</time></trkpt><trkpt lat="45.44261072932128" lon="11.195035938052305"><ele>150.0</ele><time>2026-05-01T18:09:26Z</time></trkpt><trkpt lat="45.44257586751228" lon="11.194944265068147"><ele>150.0</ele><time>2026-05-01T18:09:27Z</time></trkpt><trkpt lat="45.442539174691476" lon="11.194847777180048"><ele>150.0</ele><time>2026-05-01T18:09:28Z</time></trkpt><trkpt lat="45.44250411112147" lon="11.194755573753698"><ele>150.0</ele><time>2026-05-01T18:09:29Z</time></trkpt><trkpt lat="45.44247045863047" lon="11.194667080813797"><ele>149.99999999999997</ele><time>2026-05-01T18:09:30Z</time></trkpt><trkpt lat="45.44243683509553" lon="11.194578663968988"><ele>150.0</ele><time>2026-05-01T18:09:31Z</time></trkpt><trkpt lat="45.44240524458574" lon="11.19449610681027"><ele>148.6</ele><time>2026-05-01T18:09:32Z</time></trkpt><trkpt lat="45.44235858002113" lon="11.194423338491145"><ele>147.2</ele><time>2026-05-01T18:09:33Z</time></trkpt><trkpt lat="45.44230147485622" lon="11.194265145029776"><ele>145.8</ele><time>2026-05-01T18:09:35Z</time></trkpt><trkpt lat="45.4422527612561" lon="11.194094941600788"><ele>144.4</ele><time>2026-05-01T18:09:37Z</time></trkpt><trkpt lat="45.44222018572069" lon="11.19400793463948"><ele>143.0</ele><time>2026-05-01T18:09:38Z</time></trkpt><trkpt lat="45.44216092704208" lon="11.193859465361507"><ele>141.6</ele><time>2026-05-01T18:09:40Z</time></trkpt><trkpt lat="45.44210857384816" lon="11.19372980558623"><ele>140.20000000000002</ele><time>2026-05-01T18:09:42Z</time></trkpt><trkpt lat="45.44206341030221" lon="11.193619807594635"><ele>138.8</ele><time>2026-05-01T18:09:44Z</time></trkpt><trkpt lat="45.44201383391306" lon="11.193516947405811"><ele>137.4</ele><time>2026-05-01T18:09:46Z</time></trkpt><trkpt lat="45.442000740026714" lon="11.193396318862117"><ele>136.0</ele><time>2026-05-01T18:09:48Z</time></trkpt><trkpt lat="45.44201747019541" lon="11.193277469761357"><ele>136.0</ele><time>2026-05-01T18:09:50Z</time></trkpt><trkpt lat="45.44206625016602" lon="11.193187990219624"><ele>136.0</ele><time>2026-05-01T18:09:52Z</time></trkpt><trkpt lat="45.442103636751106" lon="11.19309929559929"><ele>136.0</ele><time>2026-05-01T18:09:54Z</time></trkpt><trkpt lat="45.44217054273473" lon="11.193002766937132"><ele>136.0</ele><time>2026-05-01T18:09:57Z</time></trkpt><trkpt lat="45.44222815814394" lon="11.19294861117317"><ele>136.0</ele><time>2026-05-01T18:09:59Z</time></trkpt><trkpt lat="45.44229658493499" lon="11.192889743974739"><ele>136.0</ele><time>2026-05-01T18:10:01Z</time></trkpt><trkpt lat="45.44236446633952" lon="11.192815596541383"><ele>135.33333333333334</ele><time>2026-05-01T18:10:03Z</time></trkpt><trkpt lat="45.44240922115806" lon="11.192703580621327"><ele>134.66666666666669</ele><time>2026-05-01T18:10:05Z</time></trkpt><trkpt lat="45.4424019720764" lon="11.192568202234897"><ele>134.0</ele><time>2026-05-01T18:10:07Z</time></trkpt><trkpt lat="45.44237824260634" lon="11.192425766422426"><ele>133.33333333333334</ele><time>2026-05-01T18:10:09Z</time></trkpt><trkpt lat="45.44236372567602" lon="11.192336728637628"><ele>132.66666666666666</ele><time>2026-05-01T18:10:10Z</time></trkpt><trkpt lat="45.44234643919642" lon="11.192240903571852"><ele>132.0</ele><time>2026-05-01T18:10:11Z</time></trkpt><trkpt lat="45.44232664662289" lon="11.19213664590804"><ele>130.79999999999998</ele><time>2026-05-01T18:10:12Z</time></trkpt><trkpt lat="45.44228897033775" lon="11.192028096183032"><ele>129.6</ele><time>2026-05-01T18:10:13Z</time></trkpt><trkpt lat="45.44226343688972" lon="11.191906951000659"><ele>128.39999999999998</ele><time>2026-05-01T18:10:14Z</time></trkpt><trkpt lat="45.442227880347964" lon="11.191782384877335"><ele>127.19999999999999</ele><time>2026-05-01T18:10:15Z</time></trkpt><trkpt lat="45.442186022413" lon="11.191665129479079"><ele>126.0</ele><time>2026-05-01T18:10:16Z</time></trkpt><trkpt lat="45.442142045509506" lon="11.191546879057189"><ele>125.19999999999999</ele><time>2026-05-01T18:10:17Z</time></trkpt><trkpt lat="45.442090589376996" lon="11.191427941004733"><ele>124.39999999999999</ele><time>2026-05-01T18:10:18Z</time></trkpt><trkpt lat="45.44203828510147" lon="11.191314321459547"><ele>123.6</ele><time>2026-05-01T18:10:19Z</time></trkpt><trkpt lat="45.44199017837325" lon="11.191208346363577"><ele>122.8</ele><time>2026-05-01T18:10:20Z</time></trkpt><trkpt lat="45.4419427467333" lon="11.191096889647675"><ele>122.0</ele><time>2026-05-01T18:10:21Z</time></trkpt><trkpt lat="45.4418898884571" lon="11.190986554124564"><ele>122.0</ele><time>2026-05-01T18:10:22Z</time></trkpt><trkpt lat="45.44183336968231" lon="11.190877419360367"><ele>121.99999999999999</ele><time>2026-05-01T18:10:23Z</time></trkpt><trkpt lat="45.44177700932107" lon="11.190766092962052"><ele>121.99999999999999</ele><time>2026-05-01T18:10:24Z</time></trkpt><trkpt lat="45.44172847321123" lon="11.190655382736455"><ele>122.0</ele><time>2026-05-01T18:10:25Z</time></trkpt><trkpt lat="45.4416819769756" lon="11.190544346385282"><ele>122.0</ele><time>2026-05-01T18:10:26Z</time></trkpt><trkpt lat="45.441628840074486" lon="11.190440414619795"><ele>120.83333333333333</ele><time>2026-05-01T18:10:27Z</time></trkpt><trkpt lat="45.441570526825764" lon="11.190336964738892"><ele>119.66666666666666</ele><time>2026-05-01T18:10:28Z</time></trkpt><trkpt lat="45.44150237860196" lon="11.190258582116064"><ele>118.5</ele><time>2026-05-01T18:10:29Z</time></trkpt><trkpt lat="45.441441378433915" lon="11.19018854732757"><ele>117.33333333333334</ele><time>2026-05-01T18:10:30Z</time></trkpt><trkpt lat="45.44139033561807" lon="11.190130616785547"><ele>116.16666666666667</ele><time>2026-05-01T18:10:31Z</time></trkpt><trkpt lat="45.441304987535496" lon="11.190032551882846"><ele>115.0</ele><time>2026-05-01T18:10:33Z</time></trkpt><trkpt lat="45.44122841190841" lon="11.189941783688045"><ele>113.6</ele><time>2026-05-01T18:10:35Z</time></trkpt><trkpt lat="45.441129992543516" lon="11.189864038553349"><ele>112.2</ele><time>2026-05-01T18:10:37Z</time></trkpt><trkpt lat="45.441060617368144" lon="11.189812668101382"><ele>110.80000000000001</ele><time>2026-05-01T18:10:38Z</time></trkpt><trkpt lat="45.44096502030947" lon="11.189782793233586"><ele>109.4</ele><time>2026-05-01T18:10:39Z</time></trkpt><trkpt lat="45.44084798039327" lon="11.189733245061296"><ele>108.0</ele><time>2026-05-01T18:10:40Z</time></trkpt><trkpt lat="45.44073332818085" lon="11.189690300854402"><ele>106.80000000000001</ele><time>2026-05-01T18:10:41Z</time></trkpt><trkpt lat="45.4406448814396" lon="11.189649774892207"><ele>105.60000000000001</ele><time>2026-05-01T18:10:42Z</time></trkpt><trkpt lat="45.440573727890076" lon="11.18961597186207"><ele>104.4</ele><time>2026-05-01T18:10:43Z</time></trkpt><trkpt lat="45.440469580678354" lon="11.18953081565816"><ele>103.19999999999999</ele><time>2026-05-01T18:10:45Z</time></trkpt><trkpt lat="45.44044271580683" lon="11.189398471935268"><ele>102.0</ele><time>2026-05-01T18:10:46Z</time></trkpt><trkpt lat="45.44040760912176" lon="11.189212723771167"><ele>99.75</ele><time>2026-05-01T18:10:47Z</time></trkpt><trkpt lat="45.440377983865616" lon="11.188983553058806"><ele>97.5</ele><time>2026-05-01T18:10:48Z</time></trkpt><trkpt lat="45.44030311392603" lon="11.188834104050274"><ele>95.25</ele><time>2026-05-01T18:10:49Z</time></trkpt><trkpt lat="45.44025316117905" lon="11.188690346938133"><ele>93.0</ele><time>2026-05-01T18:10:50Z</time></trkpt><trkpt lat="45.44019569348823" lon="11.18861414342846"><ele>93.0</ele><time>2026-05-01T18:10:51Z</time></trkpt><trkpt lat="45.44017003093615" lon="11.188521168268334"><ele>93.0</ele><time>2026-05-01T18:10:54Z</time></trkpt><trkpt lat="45.44006187109486" lon="11.188628760972989"><ele>93.0</ele><time>2026-05-01T18:10:55Z</time></trkpt><trkpt lat="45.43998312166738" lon="11.188751570429098"><ele>93.0</ele><time>2026-05-01T18:10:56Z</time></trkpt><trkpt lat="45.439892765387675" lon="11.188890404955771"><ele>93.5</ele><time>2026-05-01T18:10:57Z</time></trkpt><trkpt lat="45.439791689289585" lon="11.18903806431445"><ele>94.0</ele><time>2026-05-01T18:10:58Z</time></trkpt><trkpt lat="45.43969701225635" lon="11.189164023057769"><ele>94.5</ele><time>2026-05-01T18:10:59Z</time></trkpt><trkpt lat="45.43959873402531" lon="11.189270668502298"><ele>95.0</ele><time>2026-05-01T18:11:00Z</time></trkpt><trkpt lat="45.43948280251481" lon="11.189356800220278"><ele>94.0</ele><time>2026-05-01T18:11:01Z</time></trkpt><trkpt lat="45.439364677298684" lon="11.189432271402476"><ele>93.0</ele><time>2026-05-01T18:11:02Z</time></trkpt><trkpt lat="45.43924957107192" lon="11.189496630216395"><ele>92.0</ele><time>2026-05-01T18:11:03Z</time></trkpt><trkpt lat="45.439125583930604" lon="11.189544954988644"><ele>91.0</ele><time>2026-05-01T18:11:04Z</time></trkpt><trkpt lat="45.43902516794953" lon="11.189574599205384"><ele>91.0</ele><time>2026-05-01T18:11:05Z</time></trkpt><trkpt lat="45.43894441324772" lon="11.189602051524368"><ele>91.0</ele><time>2026-05-01T18:11:06Z</time></trkpt><trkpt lat="45.43887972543563" lon="11.189627927142983"><ele>91.0</ele><time>2026-05-01T18:11:07Z</time></trkpt><trkpt lat="45.43878128827989" lon="11.189589209023778"><ele>91.0</ele><time>2026-05-01T18:11:09Z</time></trkpt><trkpt lat="45.438711728639184" lon="11.189530231857761"><ele>91.0</ele><time>2026-05-01T18:11:10Z</time></trkpt><trkpt lat="45.43863021470682" lon="11.189467463696008"><ele>91.0</ele><time>2026-05-01T18:11:11Z</time></trkpt><trkpt lat="45.438534656675614" lon="11.18941026235579"><ele>90.4</ele><time>2026-05-01T18:11:12Z</time></trkpt><trkpt lat="45.43843977620606" lon="11.189363335681774"><ele>89.8</ele><time>2026-05-01T18:11:13Z</time></trkpt><trkpt lat="45.438344613818956" lon="11.189318484478228"><ele>89.2</ele><time>2026-05-01T18:11:14Z</time></trkpt><trkpt lat="45.438241988461755" lon="11.189270201599296"><ele>88.60000000000001</ele><time>2026-05-01T18:11:15Z</time></trkpt><trkpt lat="45.43813725110465" lon="11.189222271966102"><ele>88.0</ele><time>2026-05-01T18:11:16Z</time></trkpt><trkpt lat="45.43803077523063" lon="11.189192777466058"><ele>87.80000000000001</ele><time>2026-05-01T18:11:17Z</time></trkpt><trkpt lat="45.43792791412243" lon="11.18914157557017"><ele>87.6</ele><time>2026-05-01T18:11:18Z</time></trkpt><trkpt lat="45.43782335883961" lon="11.189092152643457"><ele>87.4</ele><time>2026-05-01T18:11:19Z</time></trkpt><trkpt lat="45.43771607322869" lon="11.18905093849773"><ele>87.19999999999999</ele><time>2026-05-01T18:11:20Z</time></trkpt><trkpt lat="45.43760344112044" lon="11.189027739888994"><ele>87.0</ele><time>2026-05-01T18:11:21Z</time></trkpt><trkpt lat="45.43749292885349" lon="11.18899830437139"><ele>87.0</ele><time>2026-05-01T18:11:22Z</time></trkpt><trkpt lat="45.43738476112762" lon="11.188977160880526"><ele>87.0</ele><time>2026-05-01T18:11:23Z</time></trkpt><trkpt lat="45.43726733183865" lon="11.188962712975293"><ele>87.0</ele><time>2026-05-01T18:11:24Z</time></trkpt><trkpt lat="45.43714364803823" lon="11.188934510858509"><ele>87.0</ele><time>2026-05-01T18:11:25Z</time></trkpt><trkpt lat="45.43701782426523" lon="11.188885898739443"><ele>86.75</ele><time>2026-05-01T18:11:26Z</time></trkpt><trkpt lat="45.43689238618525" lon="11.188817172662787"><ele>86.5</ele><time>2026-05-01T18:11:27Z</time></trkpt><trkpt lat="45.436777300458374" lon="11.188734336826743"><ele>86.25</ele><time>2026-05-01T18:11:28Z</time></trkpt><trkpt lat="45.43667904347142" lon="11.188630185647511"><ele>86.0</ele><time>2026-05-01T18:11:29Z</time></trkpt><trkpt lat="45.436602491528895" lon="11.188499201743463"><ele>86.0</ele><time>2026-05-01T18:11:30Z</time></trkpt><trkpt lat="45.436527776108086" lon="11.188355943741046"><ele>86.0</ele><time>2026-05-01T18:11:31Z</time></trkpt><trkpt lat="45.43644184782484" lon="11.188227652107837"><ele>86.0</ele><time>2026-05-01T18:11:32Z</time></trkpt><trkpt lat="45.43632877125029" lon="11.188117196443947"><ele>86.0</ele><time>2026-05-01T18:11:33Z</time></trkpt><trkpt lat="45.43619211847632" lon="11.188013344511685"><ele>86.0</ele><time>2026-05-01T18:11:34Z</time></trkpt><trkpt lat="45.43607496086381" lon="11.187919809646072"><ele>86.0</ele><time>2026-05-01T18:11:35Z</time></trkpt><trkpt lat="45.43597050573918" lon="11.187828574866531"><ele>86.0</ele><time>2026-05-01T18:11:36Z</time></trkpt><trkpt lat="45.43588148883202" lon="11.18772085032057"><ele>86.0</ele><time>2026-05-01T18:11:37Z</time></trkpt><trkpt lat="45.4358000001621" lon="11.187644281424928"><ele>86.0</ele><time>2026-05-01T18:11:38Z</time></trkpt><trkpt lat="45.43574667077959" lon="11.187588883622483"><ele>86.0</ele><time>2026-05-01T18:11:39Z</time></trkpt><trkpt lat="45.43571344049978" lon="11.187497530996348"><ele>86.0</ele><time>2026-05-01T18:11:41Z</time></trkpt><trkpt lat="45.435648028622744" lon="11.18737616082088"><ele>86.0</ele><time>2026-05-01T18:11:43Z</time></trkpt><trkpt lat="45.43558026784682" lon="11.18734126042657"><ele>86.0</ele><time>2026-05-01T18:11:44Z</time></trkpt><trkpt lat="45.43551748678167" lon="11.18726587504971"><ele>86.0</ele><time>2026-05-01T18:11:45Z</time></trkpt><trkpt lat="45.435450327948246" lon="11.187181171325705"><ele>85.4</ele><time>2026-05-01T18:11:46Z</time></trkpt><trkpt lat="45.43537433912892" lon="11.187112678305969"><ele>84.8</ele><time>2026-05-01T18:11:47Z</time></trkpt><trkpt lat="45.435280853211154" lon="11.187073635714164"><ele>84.2</ele><time>2026-05-01T18:11:48Z</time></trkpt><trkpt lat="45.43517753507743" lon="11.187037759209758"><ele>83.60000000000001</ele><time>2026-05-01T18:11:49Z</time></trkpt><trkpt lat="45.435066195300664" lon="11.186991352519764"><ele>83.0</ele><time>2026-05-01T18:11:50Z</time></trkpt><trkpt lat="45.43497040223828" lon="11.18694306102467"><ele>83.0</ele><time>2026-05-01T18:11:51Z</time></trkpt><trkpt lat="45.434875267489794" lon="11.186886996092328"><ele>83.0</ele><time>2026-05-01T18:11:52Z</time></trkpt><trkpt lat="45.434781944960285" lon="11.186837039397297"><ele>83.0</ele><time>2026-05-01T18:11:53Z</time></trkpt><trkpt lat="45.434688450976374" lon="11.186788545782276"><ele>83.0</ele><time>2026-05-01T18:11:54Z</time></trkpt><trkpt lat="45.43459699899596" lon="11.18673989053655"><ele>83.0</ele><time>2026-05-01T18:11:55Z</time></trkpt><trkpt lat="45.4345115739672" lon="11.186711656274145"><ele>83.0</ele><time>2026-05-01T18:11:56Z</time></trkpt><trkpt lat="45.4344254234613" lon="11.186684876769053"><ele>83.0</ele><time>2026-05-01T18:11:57Z</time></trkpt><trkpt lat="45.43434508828258" lon="11.186628534935535"><ele>83.0</ele><time>2026-05-01T18:11:58Z</time></trkpt><trkpt lat="45.43426925914447" lon="11.186550231690248"><ele>83.0</ele><time>2026-05-01T18:11:59Z</time></trkpt><trkpt lat="45.43421948097865" lon="11.18643735179695"><ele>83.0</ele><time>2026-05-01T18:12:00Z</time></trkpt><trkpt lat="45.43418246308728" lon="11.186313655907995"><ele>82.80000000000001</ele><time>2026-05-01T18:12:01Z</time></trkpt><trkpt lat="45.43415522886366" lon="11.186187671276743"><ele>82.6</ele><time>2026-05-01T18:12:02Z</time></trkpt><trkpt lat="45.43413771120254" lon="11.186050621064961"><ele>82.4</ele><time>2026-05-01T18:12:03Z</time></trkpt><trkpt lat="45.43413205677798" lon="11.18591684905017"><ele>82.19999999999999</ele><time>2026-05-01T18:12:04Z</time></trkpt><trkpt lat="45.434131601617615" lon="11.185775875745767"><ele>82.0</ele><time>2026-05-01T18:12:05Z</time></trkpt><trkpt lat="45.43411818439039" lon="11.18563022577118"><ele>81.6</ele><time>2026-05-01T18:12:06Z</time></trkpt><trkpt lat="45.43410563649278" lon="11.185482379434443"><ele>81.19999999999999</ele><time>2026-05-01T18:12:07Z</time></trkpt><trkpt lat="45.4340972260812" lon="11.185330001295272"><ele>80.8</ele><time>2026-05-01T18:12:08Z</time></trkpt><trkpt lat="45.43408238563845" lon="11.185175943114638"><ele>80.4</ele><time>2026-05-01T18:12:09Z</time></trkpt><trkpt lat="45.43406424321773" lon="11.185012250185174"><ele>80.0</ele><time>2026-05-01T18:12:10Z</time></trkpt><trkpt lat="45.434043673749365" lon="11.184836897762446"><ele>80.0</ele><time>2026-05-01T18:12:11Z</time></trkpt><trkpt lat="45.43401891381539" lon="11.184663142585748"><ele>80.0</ele><time>2026-05-01T18:12:12Z</time></trkpt><trkpt lat="45.43399877291926" lon="11.184479974366575"><ele>80.0</ele><time>2026-05-01T18:12:13Z</time></trkpt><trkpt lat="45.43399520982361" lon="11.184289075468126"><ele>80.0</ele><time>2026-05-01T18:12:14Z</time></trkpt><trkpt lat="45.43402857887547" lon="11.184085159920208"><ele>81.33333333333334</ele><time>2026-05-01T18:12:15Z</time></trkpt><trkpt lat="45.43403018590894" lon="11.183862470151936"><ele>82.66666666666667</ele><time>2026-05-01T18:12:16Z</time></trkpt><trkpt lat="45.43404058945612" lon="11.183621038041755"><ele>84.0</ele><time>2026-05-01T18:12:17Z</time></trkpt><trkpt lat="45.434042833363556" lon="11.183397205162734"><ele>84.0</ele><time>2026-05-01T18:12:18Z</time></trkpt><trkpt lat="45.43402531094337" lon="11.1832167428978"><ele>84.0</ele><time>2026-05-01T18:12:19Z</time></trkpt><trkpt lat="45.434011167525746" lon="11.183073133467635"><ele>84.0</ele><time>2026-05-01T18:12:20Z</time></trkpt><trkpt lat="45.433988564601506" lon="11.182947297898393"><ele>84.0</ele><time>2026-05-01T18:12:21Z</time></trkpt><trkpt lat="45.433943754929096" lon="11.18283006659402"><ele>84.0</ele><time>2026-05-01T18:12:22Z</time></trkpt><trkpt lat="45.433875131472234" lon="11.182716514417901"><ele>82.5</ele><time>2026-05-01T18:12:23Z</time></trkpt><trkpt lat="45.43378463174996" lon="11.182580500954662"><ele>81.0</ele><time>2026-05-01T18:12:24Z</time></trkpt><trkpt lat="45.43367762069875" lon="11.182431549222533"><ele>79.5</ele><time>2026-05-01T18:12:25Z</time></trkpt><trkpt lat="45.43356907235517" lon="11.182304121941733"><ele>78.0</ele><time>2026-05-01T18:12:26Z</time></trkpt><trkpt lat="45.43346839906008" lon="11.182168612157295"><ele>77.8</ele><time>2026-05-01T18:12:27Z</time></trkpt><trkpt lat="45.43337374262539" lon="11.182051717280164"><ele>77.6</ele><time>2026-05-01T18:12:28Z</time></trkpt><trkpt lat="45.433289558401675" lon="11.1819509009676"><ele>77.4</ele><time>2026-05-01T18:12:29Z</time></trkpt><trkpt lat="45.43320916938177" lon="11.181861150635386"><ele>77.2</ele><time>2026-05-01T18:12:30Z</time></trkpt><trkpt lat="45.43314196144111" lon="11.181808747083556"><ele>77.0</ele><time>2026-05-01T18:12:31Z</time></trkpt><trkpt lat="45.433158423205896" lon="11.181500342523593"><ele>76.66666666666667</ele><time>2026-05-01T18:12:33Z</time></trkpt><trkpt lat="45.43316064891457" lon="11.181311972044554"><ele>76.33333333333333</ele><time>2026-05-01T18:12:34Z</time></trkpt><trkpt lat="45.433145142286584" lon="11.181071918588673"><ele>76.0</ele><time>2026-05-01T18:12:35Z</time></trkpt><trkpt lat="45.43311605847117" lon="11.18082679682891"><ele>76.0</ele><time>2026-05-01T18:12:36Z</time></trkpt><trkpt lat="45.43308526272119" lon="11.180629616875962"><ele>76.0</ele><time>2026-05-01T18:12:37Z</time></trkpt><trkpt lat="45.433060500303" lon="11.180461714468388"><ele>76.0</ele><time>2026-05-01T18:12:38Z</time></trkpt><trkpt lat="45.43303567364734" lon="11.18030018277486"><ele>76.0</ele><time>2026-05-01T18:12:39Z</time></trkpt><trkpt lat="45.43301177402688" lon="11.180152858000426"><ele>76.0</ele><time>2026-05-01T18:12:40Z</time></trkpt><trkpt lat="45.432991730838395" lon="11.180025837517304"><ele>76.0</ele><time>2026-05-01T18:12:41Z</time></trkpt><trkpt lat="45.43297710846753" lon="11.17990482124289"><ele>76.0</ele><time>2026-05-01T18:12:42Z</time></trkpt><trkpt lat="45.432957597718456" lon="11.179784956856976"><ele>76.0</ele><time>2026-05-01T18:12:43Z</time></trkpt><trkpt lat="45.432934232385584" lon="11.1796791164135"><ele>76.0</ele><time>2026-05-01T18:12:44Z</time></trkpt><trkpt lat="45.432916639336476" lon="11.179581692211679"><ele>76.0</ele><time>2026-05-01T18:12:45Z</time></trkpt><trkpt lat="45.432892976243416" lon="11.17949241125539"><ele>74.0</ele><time>2026-05-01T18:12:46Z</time></trkpt><trkpt lat="45.43285474016973" lon="11.179356150836723"><ele>74.0</ele><time>2026-05-01T18:12:48Z</time></trkpt><trkpt lat="45.43284573330365" lon="11.179219292264104"><ele>74.0</ele><time>2026-05-01T18:12:50Z</time></trkpt><trkpt lat="45.43284385360117" lon="11.179093747783638"><ele>74.0</ele><time>2026-05-01T18:12:52Z</time></trkpt></trkseg></trk></gpx>